<?xml version="1.0" encoding="UTF-8" standalone="no" ?>
<gpx xmlns="http://www.topografix.com/GPX/1/1" xmlns:xsi="http://www.w3.org/2001/XMLSchema-instance" xsi:schemaLocation="http://www.topografix.com/GPX/1/1 http://www.topografix.com/GPX/1/1/gpx.xsd" version="1.1" creator="VisuGPX - https://www.visugpx.com">
  <metadata>
    <name>Châtenois, Château de Bellevue, Croix Boyon, </name>
    <desc><![CDATA[Randonnée effectuée le 11 septembre 2017.
L'indice IBP d'effort est de 35, (suivant l'échelle de la FFRP) un score compris entre 26 et 50 correspond au niveau 2 qualifié de "ASSEZ FACILE". La randonnée pédestre présente peu de difficulté physique. Ce niveau correspond aux promenades et petites randonnées.
]]></desc>
  </metadata>
  <trk>
    <name><![CDATA[11 sept. 2017 à 09:09:13]]></name>
    <cmt><![CDATA[11 sept. 2017 à 09:09:13]]></cmt>
    <trkseg>
      <trkpt lat="47.14624" lon="5.55237">
        <ele>219</ele>
        <time>2017-09-11T07:09:51Z</time>
      </trkpt>
      <trkpt lat="47.14625" lon="5.55236">
        <ele>197</ele>
        <time>2017-09-11T07:09:54Z</time>
      </trkpt>
      <trkpt lat="47.14629" lon="5.55239">
        <ele>209</ele>
        <time>2017-09-11T07:10:09Z</time>
      </trkpt>
      <trkpt lat="47.14636" lon="5.5523">
        <ele>212</ele>
        <time>2017-09-11T07:11:47Z</time>
      </trkpt>
      <trkpt lat="47.14638" lon="5.55209">
        <ele>211</ele>
        <time>2017-09-11T07:12:03Z</time>
      </trkpt>
      <trkpt lat="47.14635" lon="5.55204">
        <ele>211</ele>
        <time>2017-09-11T07:12:08Z</time>
      </trkpt>
      <trkpt lat="47.14627" lon="5.55196">
        <ele>210</ele>
        <time>2017-09-11T07:12:17Z</time>
      </trkpt>
      <trkpt lat="47.14624" lon="5.5519">
        <ele>210</ele>
        <time>2017-09-11T07:12:23Z</time>
      </trkpt>
      <trkpt lat="47.14616" lon="5.55182">
        <ele>210</ele>
        <time>2017-09-11T07:12:32Z</time>
      </trkpt>
      <trkpt lat="47.14605" lon="5.55166">
        <ele>211</ele>
        <time>2017-09-11T07:12:44Z</time>
      </trkpt>
      <trkpt lat="47.14597" lon="5.55157">
        <ele>211</ele>
        <time>2017-09-11T07:12:53Z</time>
      </trkpt>
      <trkpt lat="47.14594" lon="5.55152">
        <ele>211</ele>
        <time>2017-09-11T07:12:57Z</time>
      </trkpt>
      <trkpt lat="47.14592" lon="5.55145">
        <ele>211</ele>
        <time>2017-09-11T07:13:01Z</time>
      </trkpt>
      <trkpt lat="47.14595" lon="5.55139">
        <ele>211</ele>
        <time>2017-09-11T07:13:05Z</time>
      </trkpt>
      <trkpt lat="47.14593" lon="5.55133">
        <ele>211</ele>
        <time>2017-09-11T07:13:09Z</time>
      </trkpt>
      <trkpt lat="47.14589" lon="5.55128">
        <ele>211</ele>
        <time>2017-09-11T07:13:13Z</time>
      </trkpt>
      <trkpt lat="47.14586" lon="5.55123">
        <ele>211</ele>
        <time>2017-09-11T07:13:16Z</time>
      </trkpt>
      <trkpt lat="47.14578" lon="5.55114">
        <ele>212</ele>
        <time>2017-09-11T07:13:24Z</time>
      </trkpt>
      <trkpt lat="47.14573" lon="5.55111">
        <ele>212</ele>
        <time>2017-09-11T07:13:28Z</time>
      </trkpt>
      <trkpt lat="47.14568" lon="5.55106">
        <ele>212</ele>
        <time>2017-09-11T07:13:32Z</time>
      </trkpt>
      <trkpt lat="47.14564" lon="5.551">
        <ele>212</ele>
        <time>2017-09-11T07:13:36Z</time>
      </trkpt>
      <trkpt lat="47.14558" lon="5.55089">
        <ele>211</ele>
        <time>2017-09-11T07:13:43Z</time>
      </trkpt>
      <trkpt lat="47.14555" lon="5.55083">
        <ele>212</ele>
        <time>2017-09-11T07:13:47Z</time>
      </trkpt>
      <trkpt lat="47.14553" lon="5.55075">
        <ele>212</ele>
        <time>2017-09-11T07:13:51Z</time>
      </trkpt>
      <trkpt lat="47.14547" lon="5.55062">
        <ele>213</ele>
        <time>2017-09-11T07:13:59Z</time>
      </trkpt>
      <trkpt lat="47.14539" lon="5.55053">
        <ele>214</ele>
        <time>2017-09-11T07:14:07Z</time>
      </trkpt>
      <trkpt lat="47.14536" lon="5.55048">
        <ele>214</ele>
        <time>2017-09-11T07:14:11Z</time>
      </trkpt>
      <trkpt lat="47.14532" lon="5.55042">
        <ele>215</ele>
        <time>2017-09-11T07:14:15Z</time>
      </trkpt>
      <trkpt lat="47.14525" lon="5.55033">
        <ele>214</ele>
        <time>2017-09-11T07:14:22Z</time>
      </trkpt>
      <trkpt lat="47.14518" lon="5.55019">
        <ele>215</ele>
        <time>2017-09-11T07:14:30Z</time>
      </trkpt>
      <trkpt lat="47.14517" lon="5.55011">
        <ele>215</ele>
        <time>2017-09-11T07:14:34Z</time>
      </trkpt>
      <trkpt lat="47.14515" lon="5.55004">
        <ele>215</ele>
        <time>2017-09-11T07:14:39Z</time>
      </trkpt>
      <trkpt lat="47.14512" lon="5.54998">
        <ele>215</ele>
        <time>2017-09-11T07:14:43Z</time>
      </trkpt>
      <trkpt lat="47.14513" lon="5.54984">
        <ele>215</ele>
        <time>2017-09-11T07:14:50Z</time>
      </trkpt>
      <trkpt lat="47.14511" lon="5.54961">
        <ele>216</ele>
        <time>2017-09-11T07:15:03Z</time>
      </trkpt>
      <trkpt lat="47.14512" lon="5.54954">
        <ele>216</ele>
        <time>2017-09-11T07:15:07Z</time>
      </trkpt>
      <trkpt lat="47.14521" lon="5.54935">
        <ele>214</ele>
        <time>2017-09-11T07:15:18Z</time>
      </trkpt>
      <trkpt lat="47.14526" lon="5.54914">
        <ele>213</ele>
        <time>2017-09-11T07:15:30Z</time>
      </trkpt>
      <trkpt lat="47.14536" lon="5.54888">
        <ele>214</ele>
        <time>2017-09-11T07:15:47Z</time>
      </trkpt>
      <trkpt lat="47.14539" lon="5.54883">
        <ele>214</ele>
        <time>2017-09-11T07:15:51Z</time>
      </trkpt>
      <trkpt lat="47.14542" lon="5.54876">
        <ele>215</ele>
        <time>2017-09-11T07:15:56Z</time>
      </trkpt>
      <trkpt lat="47.14545" lon="5.5487">
        <ele>215</ele>
        <time>2017-09-11T07:16:01Z</time>
      </trkpt>
      <trkpt lat="47.14553" lon="5.54861">
        <ele>215</ele>
        <time>2017-09-11T07:16:11Z</time>
      </trkpt>
      <trkpt lat="47.14563" lon="5.54852">
        <ele>214</ele>
        <time>2017-09-11T07:16:21Z</time>
      </trkpt>
      <trkpt lat="47.14573" lon="5.54847">
        <ele>212</ele>
        <time>2017-09-11T07:16:31Z</time>
      </trkpt>
      <trkpt lat="47.14577" lon="5.54842">
        <ele>212</ele>
        <time>2017-09-11T07:16:35Z</time>
      </trkpt>
      <trkpt lat="47.14581" lon="5.54836">
        <ele>212</ele>
        <time>2017-09-11T07:16:40Z</time>
      </trkpt>
      <trkpt lat="47.14591" lon="5.54827">
        <ele>213</ele>
        <time>2017-09-11T07:16:48Z</time>
      </trkpt>
      <trkpt lat="47.14611" lon="5.548">
        <ele>215</ele>
        <time>2017-09-11T07:17:09Z</time>
      </trkpt>
      <trkpt lat="47.14615" lon="5.54787">
        <ele>216</ele>
        <time>2017-09-11T07:17:17Z</time>
      </trkpt>
      <trkpt lat="47.14631" lon="5.54749">
        <ele>216</ele>
        <time>2017-09-11T07:17:41Z</time>
      </trkpt>
      <trkpt lat="47.14644" lon="5.54706">
        <ele>216</ele>
        <time>2017-09-11T07:18:05Z</time>
      </trkpt>
      <trkpt lat="47.1465" lon="5.54687">
        <ele>216</ele>
        <time>2017-09-11T07:18:19Z</time>
      </trkpt>
      <trkpt lat="47.14653" lon="5.54673">
        <ele>216</ele>
        <time>2017-09-11T07:18:26Z</time>
      </trkpt>
      <trkpt lat="47.14655" lon="5.54667">
        <ele>216</ele>
        <time>2017-09-11T07:18:30Z</time>
      </trkpt>
      <trkpt lat="47.14666" lon="5.54633">
        <ele>218</ele>
        <time>2017-09-11T07:18:51Z</time>
      </trkpt>
      <trkpt lat="47.14672" lon="5.5462">
        <ele>220</ele>
        <time>2017-09-11T07:19:01Z</time>
      </trkpt>
      <trkpt lat="47.14674" lon="5.54606">
        <ele>223</ele>
        <time>2017-09-11T07:19:10Z</time>
      </trkpt>
      <trkpt lat="47.1468" lon="5.54585">
        <ele>224</ele>
        <time>2017-09-11T07:19:24Z</time>
      </trkpt>
      <trkpt lat="47.14682" lon="5.54569">
        <ele>225</ele>
        <time>2017-09-11T07:19:34Z</time>
      </trkpt>
      <trkpt lat="47.147" lon="5.54531">
        <ele>228</ele>
        <time>2017-09-11T07:20:01Z</time>
      </trkpt>
      <trkpt lat="47.14717" lon="5.5451">
        <ele>227</ele>
        <time>2017-09-11T07:20:19Z</time>
      </trkpt>
      <trkpt lat="47.14721" lon="5.54505">
        <ele>227</ele>
        <time>2017-09-11T07:20:23Z</time>
      </trkpt>
      <trkpt lat="47.14728" lon="5.54496">
        <ele>227</ele>
        <time>2017-09-11T07:20:30Z</time>
      </trkpt>
      <trkpt lat="47.14739" lon="5.54481">
        <ele>227</ele>
        <time>2017-09-11T07:20:42Z</time>
      </trkpt>
      <trkpt lat="47.14743" lon="5.54475">
        <ele>228</ele>
        <time>2017-09-11T07:20:46Z</time>
      </trkpt>
      <trkpt lat="47.14747" lon="5.5447">
        <ele>228</ele>
        <time>2017-09-11T07:20:50Z</time>
      </trkpt>
      <trkpt lat="47.14749" lon="5.54465">
        <ele>228</ele>
        <time>2017-09-11T07:20:54Z</time>
      </trkpt>
      <trkpt lat="47.14752" lon="5.5446">
        <ele>228</ele>
        <time>2017-09-11T07:20:58Z</time>
      </trkpt>
      <trkpt lat="47.14757" lon="5.54456">
        <ele>227</ele>
        <time>2017-09-11T07:21:03Z</time>
      </trkpt>
      <trkpt lat="47.14766" lon="5.54449">
        <ele>226</ele>
        <time>2017-09-11T07:21:11Z</time>
      </trkpt>
      <trkpt lat="47.14769" lon="5.54443">
        <ele>226</ele>
        <time>2017-09-11T07:21:18Z</time>
      </trkpt>
      <trkpt lat="47.14776" lon="5.54434">
        <ele>226</ele>
        <time>2017-09-11T07:21:28Z</time>
      </trkpt>
      <trkpt lat="47.14795" lon="5.54419">
        <ele>228</ele>
        <time>2017-09-11T07:21:46Z</time>
      </trkpt>
      <trkpt lat="47.14819" lon="5.5441">
        <ele>228</ele>
        <time>2017-09-11T07:22:07Z</time>
      </trkpt>
      <trkpt lat="47.14823" lon="5.54409">
        <ele>229</ele>
        <time>2017-09-11T07:22:11Z</time>
      </trkpt>
      <trkpt lat="47.14833" lon="5.54405">
        <ele>229</ele>
        <time>2017-09-11T07:22:19Z</time>
      </trkpt>
      <trkpt lat="47.14853" lon="5.54395">
        <ele>229</ele>
        <time>2017-09-11T07:22:35Z</time>
      </trkpt>
      <trkpt lat="47.14858" lon="5.54392">
        <ele>230</ele>
        <time>2017-09-11T07:22:40Z</time>
      </trkpt>
      <trkpt lat="47.14863" lon="5.54388">
        <ele>230</ele>
        <time>2017-09-11T07:22:45Z</time>
      </trkpt>
      <trkpt lat="47.14887" lon="5.54364">
        <ele>230</ele>
        <time>2017-09-11T07:23:09Z</time>
      </trkpt>
      <trkpt lat="47.14911" lon="5.5435">
        <ele>236</ele>
        <time>2017-09-11T07:23:33Z</time>
      </trkpt>
      <trkpt lat="47.14915" lon="5.54346">
        <ele>236</ele>
        <time>2017-09-11T07:23:37Z</time>
      </trkpt>
      <trkpt lat="47.14919" lon="5.54343">
        <ele>236</ele>
        <time>2017-09-11T07:23:41Z</time>
      </trkpt>
      <trkpt lat="47.14936" lon="5.54327">
        <ele>238</ele>
        <time>2017-09-11T07:23:59Z</time>
      </trkpt>
      <trkpt lat="47.1495" lon="5.54317">
        <ele>240</ele>
        <time>2017-09-11T07:24:12Z</time>
      </trkpt>
      <trkpt lat="47.14953" lon="5.54313">
        <ele>241</ele>
        <time>2017-09-11T07:24:16Z</time>
      </trkpt>
      <trkpt lat="47.14958" lon="5.54311">
        <ele>241</ele>
        <time>2017-09-11T07:24:22Z</time>
      </trkpt>
      <trkpt lat="47.14966" lon="5.54302">
        <ele>241</ele>
        <time>2017-09-11T07:24:30Z</time>
      </trkpt>
      <trkpt lat="47.14974" lon="5.54291">
        <ele>240</ele>
        <time>2017-09-11T07:24:36Z</time>
      </trkpt>
      <trkpt lat="47.14978" lon="5.54286">
        <ele>240</ele>
        <time>2017-09-11T07:24:40Z</time>
      </trkpt>
      <trkpt lat="47.14982" lon="5.54282">
        <ele>240</ele>
        <time>2017-09-11T07:24:44Z</time>
      </trkpt>
      <trkpt lat="47.15001" lon="5.54271">
        <ele>236</ele>
        <time>2017-09-11T07:25:02Z</time>
      </trkpt>
      <trkpt lat="47.15006" lon="5.5427">
        <ele>236</ele>
        <time>2017-09-11T07:25:07Z</time>
      </trkpt>
      <trkpt lat="47.15011" lon="5.54269">
        <ele>237</ele>
        <time>2017-09-11T07:25:12Z</time>
      </trkpt>
      <trkpt lat="47.1502" lon="5.54265">
        <ele>237</ele>
        <time>2017-09-11T07:25:18Z</time>
      </trkpt>
      <trkpt lat="47.15036" lon="5.54264">
        <ele>237</ele>
        <time>2017-09-11T07:25:30Z</time>
      </trkpt>
      <trkpt lat="47.15041" lon="5.54263">
        <ele>237</ele>
        <time>2017-09-11T07:25:34Z</time>
      </trkpt>
      <trkpt lat="47.15052" lon="5.54262">
        <ele>238</ele>
        <time>2017-09-11T07:25:43Z</time>
      </trkpt>
      <trkpt lat="47.15056" lon="5.54261">
        <ele>238</ele>
        <time>2017-09-11T07:25:46Z</time>
      </trkpt>
      <trkpt lat="47.15061" lon="5.5426">
        <ele>237</ele>
        <time>2017-09-11T07:25:51Z</time>
      </trkpt>
      <trkpt lat="47.15066" lon="5.54257">
        <ele>236</ele>
        <time>2017-09-11T07:25:57Z</time>
      </trkpt>
      <trkpt lat="47.15086" lon="5.5425">
        <ele>237</ele>
        <time>2017-09-11T07:26:14Z</time>
      </trkpt>
      <trkpt lat="47.15091" lon="5.5425">
        <ele>237</ele>
        <time>2017-09-11T07:26:17Z</time>
      </trkpt>
      <trkpt lat="47.15105" lon="5.54242">
        <ele>237</ele>
        <time>2017-09-11T07:26:30Z</time>
      </trkpt>
      <trkpt lat="47.15114" lon="5.54233">
        <ele>237</ele>
        <time>2017-09-11T07:26:38Z</time>
      </trkpt>
      <trkpt lat="47.15122" lon="5.54226">
        <ele>238</ele>
        <time>2017-09-11T07:26:46Z</time>
      </trkpt>
      <trkpt lat="47.15126" lon="5.54221">
        <ele>238</ele>
        <time>2017-09-11T07:26:50Z</time>
      </trkpt>
      <trkpt lat="47.1513" lon="5.54214">
        <ele>238</ele>
        <time>2017-09-11T07:26:55Z</time>
      </trkpt>
      <trkpt lat="47.15151" lon="5.54191">
        <ele>237</ele>
        <time>2017-09-11T07:27:17Z</time>
      </trkpt>
      <trkpt lat="47.15153" lon="5.54186">
        <ele>237</ele>
        <time>2017-09-11T07:27:21Z</time>
      </trkpt>
      <trkpt lat="47.15157" lon="5.54181">
        <ele>237</ele>
        <time>2017-09-11T07:27:25Z</time>
      </trkpt>
      <trkpt lat="47.15161" lon="5.54177">
        <ele>238</ele>
        <time>2017-09-11T07:27:30Z</time>
      </trkpt>
      <trkpt lat="47.15172" lon="5.54164">
        <ele>238</ele>
        <time>2017-09-11T07:27:39Z</time>
      </trkpt>
      <trkpt lat="47.15175" lon="5.5416">
        <ele>239</ele>
        <time>2017-09-11T07:27:44Z</time>
      </trkpt>
      <trkpt lat="47.15178" lon="5.54153">
        <ele>239</ele>
        <time>2017-09-11T07:27:48Z</time>
      </trkpt>
      <trkpt lat="47.15192" lon="5.54131">
        <ele>240</ele>
        <time>2017-09-11T07:28:05Z</time>
      </trkpt>
      <trkpt lat="47.15199" lon="5.54119">
        <ele>241</ele>
        <time>2017-09-11T07:28:13Z</time>
      </trkpt>
      <trkpt lat="47.15202" lon="5.54113">
        <ele>241</ele>
        <time>2017-09-11T07:28:17Z</time>
      </trkpt>
      <trkpt lat="47.15207" lon="5.54101">
        <ele>240</ele>
        <time>2017-09-11T07:28:26Z</time>
      </trkpt>
      <trkpt lat="47.15216" lon="5.54089">
        <ele>242</ele>
        <time>2017-09-11T07:28:37Z</time>
      </trkpt>
      <trkpt lat="47.15219" lon="5.54082">
        <ele>242</ele>
        <time>2017-09-11T07:28:41Z</time>
      </trkpt>
      <trkpt lat="47.15232" lon="5.5406">
        <ele>243</ele>
        <time>2017-09-11T07:28:59Z</time>
      </trkpt>
      <trkpt lat="47.15236" lon="5.54054">
        <ele>243</ele>
        <time>2017-09-11T07:29:03Z</time>
      </trkpt>
      <trkpt lat="47.15238" lon="5.54048">
        <ele>243</ele>
        <time>2017-09-11T07:29:07Z</time>
      </trkpt>
      <trkpt lat="47.15245" lon="5.54038">
        <ele>241</ele>
        <time>2017-09-11T07:29:15Z</time>
      </trkpt>
      <trkpt lat="47.1525" lon="5.54033">
        <ele>241</ele>
        <time>2017-09-11T07:29:20Z</time>
      </trkpt>
      <trkpt lat="47.15253" lon="5.54028">
        <ele>240</ele>
        <time>2017-09-11T07:29:24Z</time>
      </trkpt>
      <trkpt lat="47.15257" lon="5.54023">
        <ele>240</ele>
        <time>2017-09-11T07:29:29Z</time>
      </trkpt>
      <trkpt lat="47.15266" lon="5.54018">
        <ele>240</ele>
        <time>2017-09-11T07:29:38Z</time>
      </trkpt>
      <trkpt lat="47.15282" lon="5.54015">
        <ele>240</ele>
        <time>2017-09-11T07:29:51Z</time>
      </trkpt>
      <trkpt lat="47.15292" lon="5.54011">
        <ele>241</ele>
        <time>2017-09-11T07:30:00Z</time>
      </trkpt>
      <trkpt lat="47.15297" lon="5.54006">
        <ele>241</ele>
        <time>2017-09-11T07:30:05Z</time>
      </trkpt>
      <trkpt lat="47.15311" lon="5.53997">
        <ele>239</ele>
        <time>2017-09-11T07:30:17Z</time>
      </trkpt>
      <trkpt lat="47.15316" lon="5.53994">
        <ele>239</ele>
        <time>2017-09-11T07:30:21Z</time>
      </trkpt>
      <trkpt lat="47.1533" lon="5.53985">
        <ele>241</ele>
        <time>2017-09-11T07:30:34Z</time>
      </trkpt>
      <trkpt lat="47.15339" lon="5.53976">
        <ele>242</ele>
        <time>2017-09-11T07:30:42Z</time>
      </trkpt>
      <trkpt lat="47.15346" lon="5.53967">
        <ele>242</ele>
        <time>2017-09-11T07:30:52Z</time>
      </trkpt>
      <trkpt lat="47.15358" lon="5.53961">
        <ele>243</ele>
        <time>2017-09-11T07:31:01Z</time>
      </trkpt>
      <trkpt lat="47.15362" lon="5.53957">
        <ele>244</ele>
        <time>2017-09-11T07:31:06Z</time>
      </trkpt>
      <trkpt lat="47.15368" lon="5.53955">
        <ele>244</ele>
        <time>2017-09-11T07:31:10Z</time>
      </trkpt>
      <trkpt lat="47.15372" lon="5.53953">
        <ele>245</ele>
        <time>2017-09-11T07:31:15Z</time>
      </trkpt>
      <trkpt lat="47.15377" lon="5.53949">
        <ele>245</ele>
        <time>2017-09-11T07:31:19Z</time>
      </trkpt>
      <trkpt lat="47.15387" lon="5.53944">
        <ele>245</ele>
        <time>2017-09-11T07:31:27Z</time>
      </trkpt>
      <trkpt lat="47.15392" lon="5.53941">
        <ele>244</ele>
        <time>2017-09-11T07:31:31Z</time>
      </trkpt>
      <trkpt lat="47.15407" lon="5.53934">
        <ele>244</ele>
        <time>2017-09-11T07:31:44Z</time>
      </trkpt>
      <trkpt lat="47.15416" lon="5.53928">
        <ele>243</ele>
        <time>2017-09-11T07:31:52Z</time>
      </trkpt>
      <trkpt lat="47.1542" lon="5.53926">
        <ele>244</ele>
        <time>2017-09-11T07:31:55Z</time>
      </trkpt>
      <trkpt lat="47.15424" lon="5.53923">
        <ele>244</ele>
        <time>2017-09-11T07:31:59Z</time>
      </trkpt>
      <trkpt lat="47.15432" lon="5.53913">
        <ele>244</ele>
        <time>2017-09-11T07:32:09Z</time>
      </trkpt>
      <trkpt lat="47.15436" lon="5.5391">
        <ele>244</ele>
        <time>2017-09-11T07:32:13Z</time>
      </trkpt>
      <trkpt lat="47.15439" lon="5.53904">
        <ele>244</ele>
        <time>2017-09-11T07:32:17Z</time>
      </trkpt>
      <trkpt lat="47.15452" lon="5.53887">
        <ele>246</ele>
        <time>2017-09-11T07:32:30Z</time>
      </trkpt>
      <trkpt lat="47.15456" lon="5.53883">
        <ele>246</ele>
        <time>2017-09-11T07:32:33Z</time>
      </trkpt>
      <trkpt lat="47.15465" lon="5.53867">
        <ele>246</ele>
        <time>2017-09-11T07:32:48Z</time>
      </trkpt>
      <trkpt lat="47.15471" lon="5.53855">
        <ele>246</ele>
        <time>2017-09-11T07:32:57Z</time>
      </trkpt>
      <trkpt lat="47.15479" lon="5.53845">
        <ele>247</ele>
        <time>2017-09-11T07:33:07Z</time>
      </trkpt>
      <trkpt lat="47.15485" lon="5.53831">
        <ele>247</ele>
        <time>2017-09-11T07:33:15Z</time>
      </trkpt>
      <trkpt lat="47.15487" lon="5.53824">
        <ele>247</ele>
        <time>2017-09-11T07:33:19Z</time>
      </trkpt>
      <trkpt lat="47.15487" lon="5.53817">
        <ele>247</ele>
        <time>2017-09-11T07:33:23Z</time>
      </trkpt>
      <trkpt lat="47.15494" lon="5.53806">
        <ele>246</ele>
        <time>2017-09-11T07:33:31Z</time>
      </trkpt>
      <trkpt lat="47.15497" lon="5.538">
        <ele>246</ele>
        <time>2017-09-11T07:33:35Z</time>
      </trkpt>
      <trkpt lat="47.155" lon="5.53793">
        <ele>248</ele>
        <time>2017-09-11T07:33:40Z</time>
      </trkpt>
      <trkpt lat="47.15504" lon="5.53786">
        <ele>248</ele>
        <time>2017-09-11T07:33:45Z</time>
      </trkpt>
      <trkpt lat="47.15507" lon="5.5378">
        <ele>249</ele>
        <time>2017-09-11T07:33:51Z</time>
      </trkpt>
      <trkpt lat="47.15513" lon="5.53767">
        <ele>248</ele>
        <time>2017-09-11T07:34:01Z</time>
      </trkpt>
      <trkpt lat="47.15515" lon="5.53761">
        <ele>247</ele>
        <time>2017-09-11T07:34:06Z</time>
      </trkpt>
      <trkpt lat="47.15537" lon="5.53727">
        <ele>252</ele>
        <time>2017-09-11T07:34:31Z</time>
      </trkpt>
      <trkpt lat="47.15541" lon="5.53714">
        <ele>252</ele>
        <time>2017-09-11T07:34:40Z</time>
      </trkpt>
      <trkpt lat="47.15552" lon="5.5369">
        <ele>251</ele>
        <time>2017-09-11T07:34:56Z</time>
      </trkpt>
      <trkpt lat="47.15557" lon="5.53668">
        <ele>251</ele>
        <time>2017-09-11T07:35:09Z</time>
      </trkpt>
      <trkpt lat="47.15558" lon="5.5366">
        <ele>252</ele>
        <time>2017-09-11T07:35:13Z</time>
      </trkpt>
      <trkpt lat="47.1556" lon="5.53654">
        <ele>253</ele>
        <time>2017-09-11T07:35:17Z</time>
      </trkpt>
      <trkpt lat="47.15564" lon="5.53639">
        <ele>254</ele>
        <time>2017-09-11T07:35:28Z</time>
      </trkpt>
      <trkpt lat="47.15565" lon="5.53633">
        <ele>254</ele>
        <time>2017-09-11T07:35:33Z</time>
      </trkpt>
      <trkpt lat="47.15573" lon="5.53612">
        <ele>253</ele>
        <time>2017-09-11T07:35:48Z</time>
      </trkpt>
      <trkpt lat="47.1557" lon="5.53606">
        <ele>253</ele>
        <time>2017-09-11T07:35:55Z</time>
      </trkpt>
      <trkpt lat="47.15566" lon="5.53602">
        <ele>253</ele>
        <time>2017-09-11T07:36:00Z</time>
      </trkpt>
      <trkpt lat="47.15564" lon="5.53596">
        <ele>253</ele>
        <time>2017-09-11T07:36:04Z</time>
      </trkpt>
      <trkpt lat="47.15563" lon="5.53588">
        <ele>253</ele>
        <time>2017-09-11T07:36:09Z</time>
      </trkpt>
      <trkpt lat="47.15557" lon="5.53575">
        <ele>254</ele>
        <time>2017-09-11T07:36:21Z</time>
      </trkpt>
      <trkpt lat="47.15553" lon="5.53571">
        <ele>255</ele>
        <time>2017-09-11T07:36:24Z</time>
      </trkpt>
      <trkpt lat="47.15547" lon="5.5357">
        <ele>255</ele>
        <time>2017-09-11T07:36:28Z</time>
      </trkpt>
      <trkpt lat="47.15538" lon="5.53564">
        <ele>256</ele>
        <time>2017-09-11T07:36:34Z</time>
      </trkpt>
      <trkpt lat="47.15533" lon="5.53562">
        <ele>256</ele>
        <time>2017-09-11T07:36:37Z</time>
      </trkpt>
      <trkpt lat="47.1553" lon="5.53557">
        <ele>255</ele>
        <time>2017-09-11T07:36:41Z</time>
      </trkpt>
      <trkpt lat="47.15525" lon="5.53545">
        <ele>254</ele>
        <time>2017-09-11T07:36:52Z</time>
      </trkpt>
      <trkpt lat="47.15519" lon="5.53535">
        <ele>254</ele>
        <time>2017-09-11T07:37:00Z</time>
      </trkpt>
      <trkpt lat="47.15511" lon="5.53527">
        <ele>254</ele>
        <time>2017-09-11T07:37:08Z</time>
      </trkpt>
      <trkpt lat="47.15506" lon="5.53514">
        <ele>256</ele>
        <time>2017-09-11T07:37:18Z</time>
      </trkpt>
      <trkpt lat="47.15499" lon="5.53506">
        <ele>256</ele>
        <time>2017-09-11T07:37:25Z</time>
      </trkpt>
      <trkpt lat="47.15499" lon="5.53491">
        <ele>256</ele>
        <time>2017-09-11T07:37:33Z</time>
      </trkpt>
      <trkpt lat="47.155" lon="5.53477">
        <ele>256</ele>
        <time>2017-09-11T07:37:42Z</time>
      </trkpt>
      <trkpt lat="47.15499" lon="5.53464">
        <ele>257</ele>
        <time>2017-09-11T07:37:50Z</time>
      </trkpt>
      <trkpt lat="47.15484" lon="5.53412">
        <ele>256</ele>
        <time>2017-09-11T07:38:24Z</time>
      </trkpt>
      <trkpt lat="47.15478" lon="5.534">
        <ele>256</ele>
        <time>2017-09-11T07:38:31Z</time>
      </trkpt>
      <trkpt lat="47.15466" lon="5.53362">
        <ele>260</ele>
        <time>2017-09-11T07:38:58Z</time>
      </trkpt>
      <trkpt lat="47.15458" lon="5.53335">
        <ele>260</ele>
        <time>2017-09-11T07:39:15Z</time>
      </trkpt>
      <trkpt lat="47.15455" lon="5.53322">
        <ele>261</ele>
        <time>2017-09-11T07:39:24Z</time>
      </trkpt>
      <trkpt lat="47.15455" lon="5.53308">
        <ele>262</ele>
        <time>2017-09-11T07:39:32Z</time>
      </trkpt>
      <trkpt lat="47.1544" lon="5.53273">
        <ele>266</ele>
        <time>2017-09-11T07:39:57Z</time>
      </trkpt>
      <trkpt lat="47.15437" lon="5.53259">
        <ele>266</ele>
        <time>2017-09-11T07:40:05Z</time>
      </trkpt>
      <trkpt lat="47.15434" lon="5.53248">
        <ele>266</ele>
        <time>2017-09-11T07:40:11Z</time>
      </trkpt>
      <trkpt lat="47.15434" lon="5.53233">
        <ele>266</ele>
        <time>2017-09-11T07:40:20Z</time>
      </trkpt>
      <trkpt lat="47.15431" lon="5.53227">
        <ele>266</ele>
        <time>2017-09-11T07:40:24Z</time>
      </trkpt>
      <trkpt lat="47.1543" lon="5.53219">
        <ele>267</ele>
        <time>2017-09-11T07:40:28Z</time>
      </trkpt>
      <trkpt lat="47.15428" lon="5.53212">
        <ele>267</ele>
        <time>2017-09-11T07:40:32Z</time>
      </trkpt>
      <trkpt lat="47.15424" lon="5.53206">
        <ele>267</ele>
        <time>2017-09-11T07:40:36Z</time>
      </trkpt>
      <trkpt lat="47.15421" lon="5.53201">
        <ele>267</ele>
        <time>2017-09-11T07:40:39Z</time>
      </trkpt>
      <trkpt lat="47.15421" lon="5.53187">
        <ele>268</ele>
        <time>2017-09-11T07:40:49Z</time>
      </trkpt>
      <trkpt lat="47.15421" lon="5.53179">
        <ele>268</ele>
        <time>2017-09-11T07:40:54Z</time>
      </trkpt>
      <trkpt lat="47.1542" lon="5.53155">
        <ele>270</ele>
        <time>2017-09-11T07:41:09Z</time>
      </trkpt>
      <trkpt lat="47.15419" lon="5.53148">
        <ele>270</ele>
        <time>2017-09-11T07:41:13Z</time>
      </trkpt>
      <trkpt lat="47.15419" lon="5.53141">
        <ele>271</ele>
        <time>2017-09-11T07:41:18Z</time>
      </trkpt>
      <trkpt lat="47.15416" lon="5.53133">
        <ele>271</ele>
        <time>2017-09-11T07:41:22Z</time>
      </trkpt>
      <trkpt lat="47.15415" lon="5.53126">
        <ele>272</ele>
        <time>2017-09-11T07:41:26Z</time>
      </trkpt>
      <trkpt lat="47.15416" lon="5.5311">
        <ele>273</ele>
        <time>2017-09-11T07:41:36Z</time>
      </trkpt>
      <trkpt lat="47.15415" lon="5.53103">
        <ele>274</ele>
        <time>2017-09-11T07:41:40Z</time>
      </trkpt>
      <trkpt lat="47.15412" lon="5.53097">
        <ele>275</ele>
        <time>2017-09-11T07:41:45Z</time>
      </trkpt>
      <trkpt lat="47.15409" lon="5.53092">
        <ele>275</ele>
        <time>2017-09-11T07:41:50Z</time>
      </trkpt>
      <trkpt lat="47.15407" lon="5.53086">
        <ele>276</ele>
        <time>2017-09-11T07:41:54Z</time>
      </trkpt>
      <trkpt lat="47.15405" lon="5.5308">
        <ele>276</ele>
        <time>2017-09-11T07:41:58Z</time>
      </trkpt>
      <trkpt lat="47.15401" lon="5.53066">
        <ele>277</ele>
        <time>2017-09-11T07:42:06Z</time>
      </trkpt>
      <trkpt lat="47.15399" lon="5.5306">
        <ele>278</ele>
        <time>2017-09-11T07:42:11Z</time>
      </trkpt>
      <trkpt lat="47.15397" lon="5.53052">
        <ele>278</ele>
        <time>2017-09-11T07:42:17Z</time>
      </trkpt>
      <trkpt lat="47.15397" lon="5.53045">
        <ele>279</ele>
        <time>2017-09-11T07:42:22Z</time>
      </trkpt>
      <trkpt lat="47.15396" lon="5.53037">
        <ele>279</ele>
        <time>2017-09-11T07:42:26Z</time>
      </trkpt>
      <trkpt lat="47.15394" lon="5.5303">
        <ele>279</ele>
        <time>2017-09-11T07:42:30Z</time>
      </trkpt>
      <trkpt lat="47.15393" lon="5.53023">
        <ele>279</ele>
        <time>2017-09-11T07:42:34Z</time>
      </trkpt>
      <trkpt lat="47.15391" lon="5.53016">
        <ele>278</ele>
        <time>2017-09-11T07:42:38Z</time>
      </trkpt>
      <trkpt lat="47.15389" lon="5.5301">
        <ele>278</ele>
        <time>2017-09-11T07:42:43Z</time>
      </trkpt>
      <trkpt lat="47.15386" lon="5.52997">
        <ele>279</ele>
        <time>2017-09-11T07:42:53Z</time>
      </trkpt>
      <trkpt lat="47.15386" lon="5.52989">
        <ele>279</ele>
        <time>2017-09-11T07:42:58Z</time>
      </trkpt>
      <trkpt lat="47.15376" lon="5.5297">
        <ele>283</ele>
        <time>2017-09-11T07:43:15Z</time>
      </trkpt>
      <trkpt lat="47.15372" lon="5.52967">
        <ele>283</ele>
        <time>2017-09-11T07:43:19Z</time>
      </trkpt>
      <trkpt lat="47.15369" lon="5.5296">
        <ele>285</ele>
        <time>2017-09-11T07:43:24Z</time>
      </trkpt>
      <trkpt lat="47.15347" lon="5.52944">
        <ele>284</ele>
        <time>2017-09-11T07:43:43Z</time>
      </trkpt>
      <trkpt lat="47.15331" lon="5.52926">
        <ele>285</ele>
        <time>2017-09-11T07:44:02Z</time>
      </trkpt>
      <trkpt lat="47.15318" lon="5.52907">
        <ele>285</ele>
        <time>2017-09-11T07:44:17Z</time>
      </trkpt>
      <trkpt lat="47.15308" lon="5.52901">
        <ele>285</ele>
        <time>2017-09-11T07:44:24Z</time>
      </trkpt>
      <trkpt lat="47.15302" lon="5.5289">
        <ele>283</ele>
        <time>2017-09-11T07:44:32Z</time>
      </trkpt>
      <trkpt lat="47.15294" lon="5.52883">
        <ele>282</ele>
        <time>2017-09-11T07:44:41Z</time>
      </trkpt>
      <trkpt lat="47.15286" lon="5.52875">
        <ele>283</ele>
        <time>2017-09-11T07:44:52Z</time>
      </trkpt>
      <trkpt lat="47.15278" lon="5.52871">
        <ele>283</ele>
        <time>2017-09-11T07:44:58Z</time>
      </trkpt>
      <trkpt lat="47.1527" lon="5.52862">
        <ele>283</ele>
        <time>2017-09-11T07:45:06Z</time>
      </trkpt>
      <trkpt lat="47.15262" lon="5.52855">
        <ele>282</ele>
        <time>2017-09-11T07:45:13Z</time>
      </trkpt>
      <trkpt lat="47.15254" lon="5.52847">
        <ele>283</ele>
        <time>2017-09-11T07:45:21Z</time>
      </trkpt>
      <trkpt lat="47.15248" lon="5.52836">
        <ele>284</ele>
        <time>2017-09-11T07:45:31Z</time>
      </trkpt>
      <trkpt lat="47.15246" lon="5.52823">
        <ele>284</ele>
        <time>2017-09-11T07:45:42Z</time>
      </trkpt>
      <trkpt lat="47.15242" lon="5.5281">
        <ele>285</ele>
        <time>2017-09-11T07:45:49Z</time>
      </trkpt>
      <trkpt lat="47.15234" lon="5.528">
        <ele>285</ele>
        <time>2017-09-11T07:45:57Z</time>
      </trkpt>
      <trkpt lat="47.15226" lon="5.52794">
        <ele>286</ele>
        <time>2017-09-11T07:46:04Z</time>
      </trkpt>
      <trkpt lat="47.15219" lon="5.52784">
        <ele>287</ele>
        <time>2017-09-11T07:46:12Z</time>
      </trkpt>
      <trkpt lat="47.15216" lon="5.52771">
        <ele>287</ele>
        <time>2017-09-11T07:46:21Z</time>
      </trkpt>
      <trkpt lat="47.15207" lon="5.52765">
        <ele>287</ele>
        <time>2017-09-11T07:46:30Z</time>
      </trkpt>
      <trkpt lat="47.15205" lon="5.52751">
        <ele>286</ele>
        <time>2017-09-11T07:46:37Z</time>
      </trkpt>
      <trkpt lat="47.15201" lon="5.52737">
        <ele>286</ele>
        <time>2017-09-11T07:46:45Z</time>
      </trkpt>
      <trkpt lat="47.15198" lon="5.52723">
        <ele>287</ele>
        <time>2017-09-11T07:46:52Z</time>
      </trkpt>
      <trkpt lat="47.15193" lon="5.52711">
        <ele>288</ele>
        <time>2017-09-11T07:46:59Z</time>
      </trkpt>
      <trkpt lat="47.15193" lon="5.52683">
        <ele>289</ele>
        <time>2017-09-11T07:47:14Z</time>
      </trkpt>
      <trkpt lat="47.15192" lon="5.52676">
        <ele>290</ele>
        <time>2017-09-11T07:47:18Z</time>
      </trkpt>
      <trkpt lat="47.15191" lon="5.5267">
        <ele>289</ele>
        <time>2017-09-11T07:47:22Z</time>
      </trkpt>
      <trkpt lat="47.15191" lon="5.52662">
        <ele>289</ele>
        <time>2017-09-11T07:47:27Z</time>
      </trkpt>
      <trkpt lat="47.15189" lon="5.52656">
        <ele>289</ele>
        <time>2017-09-11T07:47:31Z</time>
      </trkpt>
      <trkpt lat="47.15186" lon="5.52651">
        <ele>289</ele>
        <time>2017-09-11T07:47:36Z</time>
      </trkpt>
      <trkpt lat="47.15184" lon="5.52619">
        <ele>291</ele>
        <time>2017-09-11T07:47:55Z</time>
      </trkpt>
      <trkpt lat="47.15184" lon="5.52604">
        <ele>290</ele>
        <time>2017-09-11T07:48:03Z</time>
      </trkpt>
      <trkpt lat="47.15185" lon="5.52597">
        <ele>290</ele>
        <time>2017-09-11T07:48:08Z</time>
      </trkpt>
      <trkpt lat="47.15186" lon="5.5259">
        <ele>289</ele>
        <time>2017-09-11T07:48:13Z</time>
      </trkpt>
      <trkpt lat="47.15187" lon="5.52583">
        <ele>289</ele>
        <time>2017-09-11T07:48:17Z</time>
      </trkpt>
      <trkpt lat="47.15191" lon="5.52569">
        <ele>289</ele>
        <time>2017-09-11T07:48:27Z</time>
      </trkpt>
      <trkpt lat="47.15194" lon="5.52563">
        <ele>289</ele>
        <time>2017-09-11T07:48:33Z</time>
      </trkpt>
      <trkpt lat="47.15197" lon="5.52557">
        <ele>289</ele>
        <time>2017-09-11T07:48:38Z</time>
      </trkpt>
      <trkpt lat="47.15203" lon="5.5254">
        <ele>292</ele>
        <time>2017-09-11T07:49:26Z</time>
      </trkpt>
      <trkpt lat="47.15197" lon="5.52541">
        <ele>294</ele>
        <time>2017-09-11T07:51:20Z</time>
      </trkpt>
      <trkpt lat="47.1522" lon="5.5258">
        <ele>297</ele>
        <time>2017-09-11T07:54:53Z</time>
      </trkpt>
      <trkpt lat="47.15224" lon="5.52585">
        <ele>298</ele>
        <time>2017-09-11T07:54:57Z</time>
      </trkpt>
      <trkpt lat="47.15229" lon="5.52599">
        <ele>299</ele>
        <time>2017-09-11T07:55:07Z</time>
      </trkpt>
      <trkpt lat="47.15233" lon="5.52604">
        <ele>299</ele>
        <time>2017-09-11T07:55:12Z</time>
      </trkpt>
      <trkpt lat="47.15235" lon="5.52611">
        <ele>299</ele>
        <time>2017-09-11T07:55:17Z</time>
      </trkpt>
      <trkpt lat="47.15243" lon="5.5262">
        <ele>299</ele>
        <time>2017-09-11T07:55:26Z</time>
      </trkpt>
      <trkpt lat="47.15252" lon="5.52625">
        <ele>300</ele>
        <time>2017-09-11T07:55:33Z</time>
      </trkpt>
      <trkpt lat="47.15276" lon="5.52649">
        <ele>300</ele>
        <time>2017-09-11T07:56:01Z</time>
      </trkpt>
      <trkpt lat="47.15292" lon="5.52663">
        <ele>298</ele>
        <time>2017-09-11T07:56:18Z</time>
      </trkpt>
      <trkpt lat="47.153" lon="5.5267">
        <ele>299</ele>
        <time>2017-09-11T07:56:25Z</time>
      </trkpt>
      <trkpt lat="47.15306" lon="5.52681">
        <ele>298</ele>
        <time>2017-09-11T07:56:33Z</time>
      </trkpt>
      <trkpt lat="47.15312" lon="5.52692">
        <ele>297</ele>
        <time>2017-09-11T07:56:40Z</time>
      </trkpt>
      <trkpt lat="47.15319" lon="5.52701">
        <ele>296</ele>
        <time>2017-09-11T07:56:47Z</time>
      </trkpt>
      <trkpt lat="47.15329" lon="5.52706">
        <ele>296</ele>
        <time>2017-09-11T07:56:56Z</time>
      </trkpt>
      <trkpt lat="47.15336" lon="5.52713">
        <ele>296</ele>
        <time>2017-09-11T07:57:05Z</time>
      </trkpt>
      <trkpt lat="47.15353" lon="5.52728">
        <ele>295</ele>
        <time>2017-09-11T07:57:21Z</time>
      </trkpt>
      <trkpt lat="47.1536" lon="5.52737">
        <ele>296</ele>
        <time>2017-09-11T07:57:28Z</time>
      </trkpt>
      <trkpt lat="47.15372" lon="5.52751">
        <ele>295</ele>
        <time>2017-09-11T07:57:40Z</time>
      </trkpt>
      <trkpt lat="47.15376" lon="5.52755">
        <ele>295</ele>
        <time>2017-09-11T07:57:44Z</time>
      </trkpt>
      <trkpt lat="47.15381" lon="5.52758">
        <ele>295</ele>
        <time>2017-09-11T07:57:49Z</time>
      </trkpt>
      <trkpt lat="47.15384" lon="5.52764">
        <ele>295</ele>
        <time>2017-09-11T07:57:55Z</time>
      </trkpt>
      <trkpt lat="47.15388" lon="5.52768">
        <ele>294</ele>
        <time>2017-09-11T07:57:59Z</time>
      </trkpt>
      <trkpt lat="47.15391" lon="5.52774">
        <ele>294</ele>
        <time>2017-09-11T07:58:03Z</time>
      </trkpt>
      <trkpt lat="47.15396" lon="5.52786">
        <ele>295</ele>
        <time>2017-09-11T07:58:10Z</time>
      </trkpt>
      <trkpt lat="47.154" lon="5.5279">
        <ele>295</ele>
        <time>2017-09-11T07:58:14Z</time>
      </trkpt>
      <trkpt lat="47.15406" lon="5.52791">
        <ele>295</ele>
        <time>2017-09-11T07:58:19Z</time>
      </trkpt>
      <trkpt lat="47.15411" lon="5.5279">
        <ele>295</ele>
        <time>2017-09-11T07:58:23Z</time>
      </trkpt>
      <trkpt lat="47.15416" lon="5.52788">
        <ele>295</ele>
        <time>2017-09-11T07:58:28Z</time>
      </trkpt>
      <trkpt lat="47.15421" lon="5.5279">
        <ele>295</ele>
        <time>2017-09-11T07:58:34Z</time>
      </trkpt>
      <trkpt lat="47.15425" lon="5.52794">
        <ele>296</ele>
        <time>2017-09-11T07:58:39Z</time>
      </trkpt>
      <trkpt lat="47.15434" lon="5.52798">
        <ele>296</ele>
        <time>2017-09-11T07:58:46Z</time>
      </trkpt>
      <trkpt lat="47.15443" lon="5.52799">
        <ele>295</ele>
        <time>2017-09-11T07:58:52Z</time>
      </trkpt>
      <trkpt lat="47.15447" lon="5.52803">
        <ele>294</ele>
        <time>2017-09-11T07:58:56Z</time>
      </trkpt>
      <trkpt lat="47.15452" lon="5.52803">
        <ele>293</ele>
        <time>2017-09-11T07:59:02Z</time>
      </trkpt>
      <trkpt lat="47.15456" lon="5.52804">
        <ele>293</ele>
        <time>2017-09-11T07:59:07Z</time>
      </trkpt>
      <trkpt lat="47.15462" lon="5.52804">
        <ele>292</ele>
        <time>2017-09-11T07:59:11Z</time>
      </trkpt>
      <trkpt lat="47.15466" lon="5.52806">
        <ele>292</ele>
        <time>2017-09-11T07:59:14Z</time>
      </trkpt>
      <trkpt lat="47.15474" lon="5.52816">
        <ele>292</ele>
        <time>2017-09-11T07:59:21Z</time>
      </trkpt>
      <trkpt lat="47.15479" lon="5.5282">
        <ele>292</ele>
        <time>2017-09-11T07:59:26Z</time>
      </trkpt>
      <trkpt lat="47.15486" lon="5.52828">
        <ele>291</ele>
        <time>2017-09-11T07:59:37Z</time>
      </trkpt>
      <trkpt lat="47.15496" lon="5.52825">
        <ele>290</ele>
        <time>2017-09-11T07:59:45Z</time>
      </trkpt>
      <trkpt lat="47.15509" lon="5.5282">
        <ele>290</ele>
        <time>2017-09-11T07:59:56Z</time>
      </trkpt>
      <trkpt lat="47.15524" lon="5.528">
        <ele>289</ele>
        <time>2017-09-11T08:00:17Z</time>
      </trkpt>
      <trkpt lat="47.15531" lon="5.52791">
        <ele>290</ele>
        <time>2017-09-11T08:00:25Z</time>
      </trkpt>
      <trkpt lat="47.15537" lon="5.52781">
        <ele>291</ele>
        <time>2017-09-11T08:00:33Z</time>
      </trkpt>
      <trkpt lat="47.15557" lon="5.52752">
        <ele>290</ele>
        <time>2017-09-11T08:01:00Z</time>
      </trkpt>
      <trkpt lat="47.15563" lon="5.52742">
        <ele>290</ele>
        <time>2017-09-11T08:01:08Z</time>
      </trkpt>
      <trkpt lat="47.1557" lon="5.52732">
        <ele>290</ele>
        <time>2017-09-11T08:01:18Z</time>
      </trkpt>
      <trkpt lat="47.15578" lon="5.52723">
        <ele>290</ele>
        <time>2017-09-11T08:01:25Z</time>
      </trkpt>
      <trkpt lat="47.15597" lon="5.52693">
        <ele>287</ele>
        <time>2017-09-11T08:01:51Z</time>
      </trkpt>
      <trkpt lat="47.15624" lon="5.52653">
        <ele>272</ele>
        <time>2017-09-11T08:02:26Z</time>
      </trkpt>
      <trkpt lat="47.15649" lon="5.52617">
        <ele>267</ele>
        <time>2017-09-11T08:02:56Z</time>
      </trkpt>
      <trkpt lat="47.15658" lon="5.52608">
        <ele>265</ele>
        <time>2017-09-11T08:03:06Z</time>
      </trkpt>
      <trkpt lat="47.15671" lon="5.52584">
        <ele>264</ele>
        <time>2017-09-11T08:03:27Z</time>
      </trkpt>
      <trkpt lat="47.15679" lon="5.52575">
        <ele>263</ele>
        <time>2017-09-11T08:03:37Z</time>
      </trkpt>
      <trkpt lat="47.15681" lon="5.52568">
        <ele>263</ele>
        <time>2017-09-11T08:03:42Z</time>
      </trkpt>
      <trkpt lat="47.1569" lon="5.52577">
        <ele>261</ele>
        <time>2017-09-11T08:03:55Z</time>
      </trkpt>
      <trkpt lat="47.157" lon="5.52579">
        <ele>259</ele>
        <time>2017-09-11T08:04:07Z</time>
      </trkpt>
      <trkpt lat="47.15705" lon="5.52581">
        <ele>258</ele>
        <time>2017-09-11T08:04:12Z</time>
      </trkpt>
      <trkpt lat="47.15709" lon="5.52586">
        <ele>257</ele>
        <time>2017-09-11T08:04:16Z</time>
      </trkpt>
      <trkpt lat="47.15713" lon="5.5259">
        <ele>257</ele>
        <time>2017-09-11T08:04:21Z</time>
      </trkpt>
      <trkpt lat="47.15715" lon="5.52596">
        <ele>257</ele>
        <time>2017-09-11T08:04:26Z</time>
      </trkpt>
      <trkpt lat="47.15718" lon="5.52603">
        <ele>257</ele>
        <time>2017-09-11T08:04:31Z</time>
      </trkpt>
      <trkpt lat="47.15722" lon="5.52606">
        <ele>256</ele>
        <time>2017-09-11T08:04:35Z</time>
      </trkpt>
      <trkpt lat="47.15738" lon="5.52625">
        <ele>252</ele>
        <time>2017-09-11T08:04:54Z</time>
      </trkpt>
      <trkpt lat="47.15746" lon="5.52635">
        <ele>252</ele>
        <time>2017-09-11T08:05:04Z</time>
      </trkpt>
      <trkpt lat="47.1575" lon="5.52638">
        <ele>253</ele>
        <time>2017-09-11T08:05:10Z</time>
      </trkpt>
      <trkpt lat="47.15755" lon="5.52639">
        <ele>253</ele>
        <time>2017-09-11T08:05:16Z</time>
      </trkpt>
      <trkpt lat="47.15765" lon="5.52647">
        <ele>252</ele>
        <time>2017-09-11T08:05:25Z</time>
      </trkpt>
      <trkpt lat="47.15771" lon="5.52658">
        <ele>252</ele>
        <time>2017-09-11T08:05:36Z</time>
      </trkpt>
      <trkpt lat="47.15775" lon="5.52662">
        <ele>252</ele>
        <time>2017-09-11T08:05:44Z</time>
      </trkpt>
      <trkpt lat="47.1578" lon="5.52664">
        <ele>252</ele>
        <time>2017-09-11T08:05:51Z</time>
      </trkpt>
      <trkpt lat="47.15785" lon="5.52665">
        <ele>251</ele>
        <time>2017-09-11T08:05:59Z</time>
      </trkpt>
      <trkpt lat="47.15794" lon="5.52664">
        <ele>252</ele>
        <time>2017-09-11T08:06:09Z</time>
      </trkpt>
      <trkpt lat="47.15801" lon="5.52655">
        <ele>252</ele>
        <time>2017-09-11T08:06:19Z</time>
      </trkpt>
      <trkpt lat="47.15807" lon="5.52642">
        <ele>252</ele>
        <time>2017-09-11T08:06:26Z</time>
      </trkpt>
      <trkpt lat="47.15807" lon="5.52631">
        <ele>249</ele>
        <time>2017-09-11T08:07:02Z</time>
      </trkpt>
      <trkpt lat="47.15808" lon="5.52624">
        <ele>249</ele>
        <time>2017-09-11T08:07:45Z</time>
      </trkpt>
      <trkpt lat="47.15801" lon="5.52626">
        <ele>256</ele>
        <time>2017-09-11T08:11:30Z</time>
      </trkpt>
      <trkpt lat="47.1581" lon="5.52633">
        <ele>256</ele>
        <time>2017-09-11T08:11:48Z</time>
      </trkpt>
      <trkpt lat="47.15819" lon="5.52635">
        <ele>256</ele>
        <time>2017-09-11T08:12:01Z</time>
      </trkpt>
      <trkpt lat="47.15824" lon="5.52638">
        <ele>255</ele>
        <time>2017-09-11T08:12:06Z</time>
      </trkpt>
      <trkpt lat="47.15827" lon="5.52644">
        <ele>253</ele>
        <time>2017-09-11T08:12:10Z</time>
      </trkpt>
      <trkpt lat="47.1583" lon="5.52651">
        <ele>253</ele>
        <time>2017-09-11T08:12:14Z</time>
      </trkpt>
      <trkpt lat="47.1584" lon="5.52655">
        <ele>251</ele>
        <time>2017-09-11T08:12:21Z</time>
      </trkpt>
      <trkpt lat="47.15844" lon="5.52658">
        <ele>250</ele>
        <time>2017-09-11T08:12:25Z</time>
      </trkpt>
      <trkpt lat="47.15851" lon="5.52668">
        <ele>249</ele>
        <time>2017-09-11T08:12:34Z</time>
      </trkpt>
      <trkpt lat="47.1587" lon="5.52691">
        <ele>249</ele>
        <time>2017-09-11T08:12:54Z</time>
      </trkpt>
      <trkpt lat="47.15879" lon="5.52691">
        <ele>250</ele>
        <time>2017-09-11T08:13:04Z</time>
      </trkpt>
      <trkpt lat="47.15888" lon="5.52697">
        <ele>252</ele>
        <time>2017-09-11T08:13:19Z</time>
      </trkpt>
      <trkpt lat="47.15907" lon="5.527">
        <ele>253</ele>
        <time>2017-09-11T08:13:39Z</time>
      </trkpt>
      <trkpt lat="47.15912" lon="5.52713">
        <ele>254</ele>
        <time>2017-09-11T08:13:53Z</time>
      </trkpt>
      <trkpt lat="47.1592" lon="5.5274">
        <ele>255</ele>
        <time>2017-09-11T08:14:12Z</time>
      </trkpt>
      <trkpt lat="47.15926" lon="5.52751">
        <ele>257</ele>
        <time>2017-09-11T08:14:22Z</time>
      </trkpt>
      <trkpt lat="47.15936" lon="5.52777">
        <ele>258</ele>
        <time>2017-09-11T08:14:37Z</time>
      </trkpt>
      <trkpt lat="47.1594" lon="5.52803">
        <ele>261</ele>
        <time>2017-09-11T08:14:59Z</time>
      </trkpt>
      <trkpt lat="47.15945" lon="5.52815">
        <ele>261</ele>
        <time>2017-09-11T08:15:09Z</time>
      </trkpt>
      <trkpt lat="47.15948" lon="5.52828">
        <ele>260</ele>
        <time>2017-09-11T08:15:15Z</time>
      </trkpt>
      <trkpt lat="47.15952" lon="5.52842">
        <ele>260</ele>
        <time>2017-09-11T08:15:23Z</time>
      </trkpt>
      <trkpt lat="47.15956" lon="5.52855">
        <ele>260</ele>
        <time>2017-09-11T08:15:33Z</time>
      </trkpt>
      <trkpt lat="47.15958" lon="5.52869">
        <ele>260</ele>
        <time>2017-09-11T08:15:41Z</time>
      </trkpt>
      <trkpt lat="47.15979" lon="5.52896">
        <ele>263</ele>
        <time>2017-09-11T08:16:06Z</time>
      </trkpt>
      <trkpt lat="47.15986" lon="5.52935">
        <ele>264</ele>
        <time>2017-09-11T08:16:29Z</time>
      </trkpt>
      <trkpt lat="47.15988" lon="5.52963">
        <ele>264</ele>
        <time>2017-09-11T08:16:46Z</time>
      </trkpt>
      <trkpt lat="47.1599" lon="5.52978">
        <ele>265</ele>
        <time>2017-09-11T08:16:53Z</time>
      </trkpt>
      <trkpt lat="47.16" lon="5.53003">
        <ele>266</ele>
        <time>2017-09-11T08:17:11Z</time>
      </trkpt>
      <trkpt lat="47.16003" lon="5.53016">
        <ele>266</ele>
        <time>2017-09-11T08:17:17Z</time>
      </trkpt>
      <trkpt lat="47.1601" lon="5.53026">
        <ele>266</ele>
        <time>2017-09-11T08:17:27Z</time>
      </trkpt>
      <trkpt lat="47.16016" lon="5.53037">
        <ele>266</ele>
        <time>2017-09-11T08:17:38Z</time>
      </trkpt>
      <trkpt lat="47.16034" lon="5.53026">
        <ele>267</ele>
        <time>2017-09-11T08:17:58Z</time>
      </trkpt>
      <trkpt lat="47.16051" lon="5.52992">
        <ele>267</ele>
        <time>2017-09-11T08:18:30Z</time>
      </trkpt>
      <trkpt lat="47.16057" lon="5.52982">
        <ele>267</ele>
        <time>2017-09-11T08:18:37Z</time>
      </trkpt>
      <trkpt lat="47.1606" lon="5.52969">
        <ele>266</ele>
        <time>2017-09-11T08:18:45Z</time>
      </trkpt>
      <trkpt lat="47.16065" lon="5.52958">
        <ele>266</ele>
        <time>2017-09-11T08:18:52Z</time>
      </trkpt>
      <trkpt lat="47.16068" lon="5.52946">
        <ele>265</ele>
        <time>2017-09-11T08:19:02Z</time>
      </trkpt>
      <trkpt lat="47.16089" lon="5.52898">
        <ele>264</ele>
        <time>2017-09-11T08:19:30Z</time>
      </trkpt>
      <trkpt lat="47.16094" lon="5.52886">
        <ele>265</ele>
        <time>2017-09-11T08:19:41Z</time>
      </trkpt>
      <trkpt lat="47.161" lon="5.52873">
        <ele>266</ele>
        <time>2017-09-11T08:19:47Z</time>
      </trkpt>
      <trkpt lat="47.16111" lon="5.52863">
        <ele>266</ele>
        <time>2017-09-11T08:19:52Z</time>
      </trkpt>
      <trkpt lat="47.16114" lon="5.5285">
        <ele>266</ele>
        <time>2017-09-11T08:20:00Z</time>
      </trkpt>
      <trkpt lat="47.16114" lon="5.52835">
        <ele>268</ele>
        <time>2017-09-11T08:20:11Z</time>
      </trkpt>
      <trkpt lat="47.16119" lon="5.52823">
        <ele>268</ele>
        <time>2017-09-11T08:20:19Z</time>
      </trkpt>
      <trkpt lat="47.16124" lon="5.52812">
        <ele>269</ele>
        <time>2017-09-11T08:20:29Z</time>
      </trkpt>
      <trkpt lat="47.16128" lon="5.52807">
        <ele>270</ele>
        <time>2017-09-11T08:20:34Z</time>
      </trkpt>
      <trkpt lat="47.1613" lon="5.52801">
        <ele>271</ele>
        <time>2017-09-11T08:20:38Z</time>
      </trkpt>
      <trkpt lat="47.1614" lon="5.52783">
        <ele>272</ele>
        <time>2017-09-11T08:20:50Z</time>
      </trkpt>
      <trkpt lat="47.16138" lon="5.52776">
        <ele>272</ele>
        <time>2017-09-11T08:20:57Z</time>
      </trkpt>
      <trkpt lat="47.1614" lon="5.52768">
        <ele>272</ele>
        <time>2017-09-11T08:21:02Z</time>
      </trkpt>
      <trkpt lat="47.16143" lon="5.52762">
        <ele>272</ele>
        <time>2017-09-11T08:21:05Z</time>
      </trkpt>
      <trkpt lat="47.16144" lon="5.52755">
        <ele>272</ele>
        <time>2017-09-11T08:21:09Z</time>
      </trkpt>
      <trkpt lat="47.16148" lon="5.52748">
        <ele>273</ele>
        <time>2017-09-11T08:21:14Z</time>
      </trkpt>
      <trkpt lat="47.16152" lon="5.52744">
        <ele>273</ele>
        <time>2017-09-11T08:21:18Z</time>
      </trkpt>
      <trkpt lat="47.16156" lon="5.5274">
        <ele>273</ele>
        <time>2017-09-11T08:21:25Z</time>
      </trkpt>
      <trkpt lat="47.16161" lon="5.52719">
        <ele>274</ele>
        <time>2017-09-11T08:21:39Z</time>
      </trkpt>
      <trkpt lat="47.16171" lon="5.52696">
        <ele>273</ele>
        <time>2017-09-11T08:21:52Z</time>
      </trkpt>
      <trkpt lat="47.16178" lon="5.52687">
        <ele>273</ele>
        <time>2017-09-11T08:22:00Z</time>
      </trkpt>
      <trkpt lat="47.16178" lon="5.52673">
        <ele>273</ele>
        <time>2017-09-11T08:22:13Z</time>
      </trkpt>
      <trkpt lat="47.16187" lon="5.52647">
        <ele>273</ele>
        <time>2017-09-11T08:22:27Z</time>
      </trkpt>
      <trkpt lat="47.16201" lon="5.52626">
        <ele>272</ele>
        <time>2017-09-11T08:22:41Z</time>
      </trkpt>
      <trkpt lat="47.1621" lon="5.52572">
        <ele>270</ele>
        <time>2017-09-11T08:23:17Z</time>
      </trkpt>
      <trkpt lat="47.16221" lon="5.52548">
        <ele>270</ele>
        <time>2017-09-11T08:23:34Z</time>
      </trkpt>
      <trkpt lat="47.16227" lon="5.52538">
        <ele>271</ele>
        <time>2017-09-11T08:23:39Z</time>
      </trkpt>
      <trkpt lat="47.16234" lon="5.52527">
        <ele>270</ele>
        <time>2017-09-11T08:23:44Z</time>
      </trkpt>
      <trkpt lat="47.16236" lon="5.52514">
        <ele>271</ele>
        <time>2017-09-11T08:23:59Z</time>
      </trkpt>
      <trkpt lat="47.1624" lon="5.52502">
        <ele>270</ele>
        <time>2017-09-11T08:24:09Z</time>
      </trkpt>
      <trkpt lat="47.16245" lon="5.5249">
        <ele>267</ele>
        <time>2017-09-11T08:24:20Z</time>
      </trkpt>
      <trkpt lat="47.16251" lon="5.52479">
        <ele>267</ele>
        <time>2017-09-11T08:24:31Z</time>
      </trkpt>
      <trkpt lat="47.16258" lon="5.52459">
        <ele>269</ele>
        <time>2017-09-11T08:24:57Z</time>
      </trkpt>
      <trkpt lat="47.16271" lon="5.52438">
        <ele>271</ele>
        <time>2017-09-11T08:25:17Z</time>
      </trkpt>
      <trkpt lat="47.16278" lon="5.52429">
        <ele>271</ele>
        <time>2017-09-11T08:25:27Z</time>
      </trkpt>
      <trkpt lat="47.16276" lon="5.52416">
        <ele>272</ele>
        <time>2017-09-11T08:25:44Z</time>
      </trkpt>
      <trkpt lat="47.16283" lon="5.52407">
        <ele>273</ele>
        <time>2017-09-11T08:25:53Z</time>
      </trkpt>
      <trkpt lat="47.1629" lon="5.52397">
        <ele>272</ele>
        <time>2017-09-11T08:26:00Z</time>
      </trkpt>
      <trkpt lat="47.16289" lon="5.52383">
        <ele>273</ele>
        <time>2017-09-11T08:26:10Z</time>
      </trkpt>
      <trkpt lat="47.16296" lon="5.5237">
        <ele>274</ele>
        <time>2017-09-11T08:26:20Z</time>
      </trkpt>
      <trkpt lat="47.16302" lon="5.52361">
        <ele>274</ele>
        <time>2017-09-11T08:26:26Z</time>
      </trkpt>
      <trkpt lat="47.16305" lon="5.52348">
        <ele>274</ele>
        <time>2017-09-11T08:26:37Z</time>
      </trkpt>
      <trkpt lat="47.16307" lon="5.52334">
        <ele>275</ele>
        <time>2017-09-11T08:26:46Z</time>
      </trkpt>
      <trkpt lat="47.16318" lon="5.52312">
        <ele>277</ele>
        <time>2017-09-11T08:27:03Z</time>
      </trkpt>
      <trkpt lat="47.16325" lon="5.52302">
        <ele>277</ele>
        <time>2017-09-11T08:27:10Z</time>
      </trkpt>
      <trkpt lat="47.16326" lon="5.52288">
        <ele>276</ele>
        <time>2017-09-11T08:27:22Z</time>
      </trkpt>
      <trkpt lat="47.16331" lon="5.52276">
        <ele>276</ele>
        <time>2017-09-11T08:27:29Z</time>
      </trkpt>
      <trkpt lat="47.16336" lon="5.52263">
        <ele>278</ele>
        <time>2017-09-11T08:27:37Z</time>
      </trkpt>
      <trkpt lat="47.16346" lon="5.52241">
        <ele>281</ele>
        <time>2017-09-11T08:27:56Z</time>
      </trkpt>
      <trkpt lat="47.16348" lon="5.52228">
        <ele>281</ele>
        <time>2017-09-11T08:28:03Z</time>
      </trkpt>
      <trkpt lat="47.16351" lon="5.52215">
        <ele>283</ele>
        <time>2017-09-11T08:28:10Z</time>
      </trkpt>
      <trkpt lat="47.16363" lon="5.52193">
        <ele>284</ele>
        <time>2017-09-11T08:28:24Z</time>
      </trkpt>
      <trkpt lat="47.16367" lon="5.52182">
        <ele>284</ele>
        <time>2017-09-11T08:28:30Z</time>
      </trkpt>
      <trkpt lat="47.16378" lon="5.52157">
        <ele>282</ele>
        <time>2017-09-11T08:28:46Z</time>
      </trkpt>
      <trkpt lat="47.16383" lon="5.52146">
        <ele>282</ele>
        <time>2017-09-11T08:28:57Z</time>
      </trkpt>
      <trkpt lat="47.16388" lon="5.52119">
        <ele>286</ele>
        <time>2017-09-11T08:29:21Z</time>
      </trkpt>
      <trkpt lat="47.16393" lon="5.52108">
        <ele>287</ele>
        <time>2017-09-11T08:29:31Z</time>
      </trkpt>
      <trkpt lat="47.16399" lon="5.52096">
        <ele>287</ele>
        <time>2017-09-11T08:29:46Z</time>
      </trkpt>
      <trkpt lat="47.16406" lon="5.52086">
        <ele>287</ele>
        <time>2017-09-11T08:29:56Z</time>
      </trkpt>
      <trkpt lat="47.16411" lon="5.52075">
        <ele>288</ele>
        <time>2017-09-11T08:30:06Z</time>
      </trkpt>
      <trkpt lat="47.16415" lon="5.52062">
        <ele>289</ele>
        <time>2017-09-11T08:30:17Z</time>
      </trkpt>
      <trkpt lat="47.1642" lon="5.5205">
        <ele>291</ele>
        <time>2017-09-11T08:30:30Z</time>
      </trkpt>
      <trkpt lat="47.16423" lon="5.52038">
        <ele>291</ele>
        <time>2017-09-11T08:30:40Z</time>
      </trkpt>
      <trkpt lat="47.16428" lon="5.52027">
        <ele>292</ele>
        <time>2017-09-11T08:30:52Z</time>
      </trkpt>
      <trkpt lat="47.16438" lon="5.52025">
        <ele>294</ele>
        <time>2017-09-11T08:31:44Z</time>
      </trkpt>
      <trkpt lat="47.16465" lon="5.52042">
        <ele>293</ele>
        <time>2017-09-11T08:32:08Z</time>
      </trkpt>
      <trkpt lat="47.16475" lon="5.52045">
        <ele>293</ele>
        <time>2017-09-11T08:32:17Z</time>
      </trkpt>
      <trkpt lat="47.16482" lon="5.52054">
        <ele>294</ele>
        <time>2017-09-11T08:32:28Z</time>
      </trkpt>
      <trkpt lat="47.1649" lon="5.52049">
        <ele>296</ele>
        <time>2017-09-11T08:32:38Z</time>
      </trkpt>
      <trkpt lat="47.16497" lon="5.52037">
        <ele>297</ele>
        <time>2017-09-11T08:32:46Z</time>
      </trkpt>
      <trkpt lat="47.165" lon="5.52024">
        <ele>298</ele>
        <time>2017-09-11T08:32:52Z</time>
      </trkpt>
      <trkpt lat="47.16519" lon="5.52005">
        <ele>302</ele>
        <time>2017-09-11T08:33:13Z</time>
      </trkpt>
      <trkpt lat="47.16518" lon="5.51998">
        <ele>303</ele>
        <time>2017-09-11T08:33:21Z</time>
      </trkpt>
      <trkpt lat="47.16522" lon="5.51993">
        <ele>306</ele>
        <time>2017-09-11T08:33:30Z</time>
      </trkpt>
      <trkpt lat="47.16525" lon="5.51988">
        <ele>307</ele>
        <time>2017-09-11T08:33:36Z</time>
      </trkpt>
      <trkpt lat="47.16527" lon="5.5198">
        <ele>308</ele>
        <time>2017-09-11T08:33:42Z</time>
      </trkpt>
      <trkpt lat="47.16543" lon="5.51951">
        <ele>314</ele>
        <time>2017-09-11T08:34:08Z</time>
      </trkpt>
      <trkpt lat="47.16546" lon="5.51945">
        <ele>314</ele>
        <time>2017-09-11T08:34:14Z</time>
      </trkpt>
      <trkpt lat="47.16549" lon="5.51939">
        <ele>313</ele>
        <time>2017-09-11T08:34:19Z</time>
      </trkpt>
      <trkpt lat="47.1656" lon="5.51913">
        <ele>311</ele>
        <time>2017-09-11T08:34:38Z</time>
      </trkpt>
      <trkpt lat="47.16569" lon="5.51889">
        <ele>313</ele>
        <time>2017-09-11T08:34:59Z</time>
      </trkpt>
      <trkpt lat="47.16582" lon="5.51852">
        <ele>314</ele>
        <time>2017-09-11T08:35:22Z</time>
      </trkpt>
      <trkpt lat="47.16591" lon="5.51826">
        <ele>314</ele>
        <time>2017-09-11T08:35:44Z</time>
      </trkpt>
      <trkpt lat="47.16595" lon="5.51813">
        <ele>315</ele>
        <time>2017-09-11T08:35:53Z</time>
      </trkpt>
      <trkpt lat="47.166" lon="5.51801">
        <ele>314</ele>
        <time>2017-09-11T08:36:00Z</time>
      </trkpt>
      <trkpt lat="47.16615" lon="5.51765">
        <ele>306</ele>
        <time>2017-09-11T08:36:18Z</time>
      </trkpt>
      <trkpt lat="47.16618" lon="5.51752">
        <ele>304</ele>
        <time>2017-09-11T08:36:24Z</time>
      </trkpt>
      <trkpt lat="47.16627" lon="5.51728">
        <ele>299</ele>
        <time>2017-09-11T08:36:40Z</time>
      </trkpt>
      <trkpt lat="47.16636" lon="5.51735">
        <ele>297</ele>
        <time>2017-09-11T08:37:05Z</time>
      </trkpt>
      <trkpt lat="47.16643" lon="5.51745">
        <ele>296</ele>
        <time>2017-09-11T08:37:15Z</time>
      </trkpt>
      <trkpt lat="47.1666" lon="5.51758">
        <ele>294</ele>
        <time>2017-09-11T08:37:32Z</time>
      </trkpt>
      <trkpt lat="47.16678" lon="5.51767">
        <ele>294</ele>
        <time>2017-09-11T08:37:51Z</time>
      </trkpt>
      <trkpt lat="47.16686" lon="5.51775">
        <ele>294</ele>
        <time>2017-09-11T08:38:00Z</time>
      </trkpt>
      <trkpt lat="47.16703" lon="5.5179">
        <ele>293</ele>
        <time>2017-09-11T08:38:17Z</time>
      </trkpt>
      <trkpt lat="47.16728" lon="5.5181">
        <ele>289</ele>
        <time>2017-09-11T08:38:41Z</time>
      </trkpt>
      <trkpt lat="47.16735" lon="5.51819">
        <ele>289</ele>
        <time>2017-09-11T08:38:50Z</time>
      </trkpt>
      <trkpt lat="47.16745" lon="5.51825">
        <ele>289</ele>
        <time>2017-09-11T08:38:58Z</time>
      </trkpt>
      <trkpt lat="47.16762" lon="5.5184">
        <ele>289</ele>
        <time>2017-09-11T08:39:13Z</time>
      </trkpt>
      <trkpt lat="47.16771" lon="5.51844">
        <ele>289</ele>
        <time>2017-09-11T08:39:22Z</time>
      </trkpt>
      <trkpt lat="47.16779" lon="5.51853">
        <ele>289</ele>
        <time>2017-09-11T08:39:33Z</time>
      </trkpt>
      <trkpt lat="47.16804" lon="5.51873">
        <ele>294</ele>
        <time>2017-09-11T08:40:05Z</time>
      </trkpt>
      <trkpt lat="47.16829" lon="5.51895">
        <ele>302</ele>
        <time>2017-09-11T08:40:33Z</time>
      </trkpt>
      <trkpt lat="47.16836" lon="5.51903">
        <ele>303</ele>
        <time>2017-09-11T08:40:40Z</time>
      </trkpt>
      <trkpt lat="47.16852" lon="5.5192">
        <ele>302</ele>
        <time>2017-09-11T08:40:58Z</time>
      </trkpt>
      <trkpt lat="47.16877" lon="5.51939">
        <ele>301</ele>
        <time>2017-09-11T08:41:23Z</time>
      </trkpt>
      <trkpt lat="47.16885" lon="5.51943">
        <ele>302</ele>
        <time>2017-09-11T08:41:31Z</time>
      </trkpt>
      <trkpt lat="47.16893" lon="5.51949">
        <ele>303</ele>
        <time>2017-09-11T08:41:39Z</time>
      </trkpt>
      <trkpt lat="47.16902" lon="5.51953">
        <ele>304</ele>
        <time>2017-09-11T08:41:45Z</time>
      </trkpt>
      <trkpt lat="47.16911" lon="5.5196">
        <ele>304</ele>
        <time>2017-09-11T08:41:52Z</time>
      </trkpt>
      <trkpt lat="47.16928" lon="5.51971">
        <ele>304</ele>
        <time>2017-09-11T08:42:06Z</time>
      </trkpt>
      <trkpt lat="47.16936" lon="5.51979">
        <ele>305</ele>
        <time>2017-09-11T08:42:14Z</time>
      </trkpt>
      <trkpt lat="47.16943" lon="5.51989">
        <ele>306</ele>
        <time>2017-09-11T08:42:24Z</time>
      </trkpt>
      <trkpt lat="47.16952" lon="5.51991">
        <ele>307</ele>
        <time>2017-09-11T08:42:35Z</time>
      </trkpt>
      <trkpt lat="47.16976" lon="5.52011">
        <ele>308</ele>
        <time>2017-09-11T08:42:57Z</time>
      </trkpt>
      <trkpt lat="47.17001" lon="5.52033">
        <ele>308</ele>
        <time>2017-09-11T08:43:20Z</time>
      </trkpt>
      <trkpt lat="47.17008" lon="5.52042">
        <ele>308</ele>
        <time>2017-09-11T08:43:29Z</time>
      </trkpt>
      <trkpt lat="47.17025" lon="5.52055">
        <ele>310</ele>
        <time>2017-09-11T08:43:46Z</time>
      </trkpt>
      <trkpt lat="47.17034" lon="5.5206">
        <ele>311</ele>
        <time>2017-09-11T08:43:54Z</time>
      </trkpt>
      <trkpt lat="47.17059" lon="5.5208">
        <ele>311</ele>
        <time>2017-09-11T08:44:16Z</time>
      </trkpt>
      <trkpt lat="47.17066" lon="5.52088">
        <ele>311</ele>
        <time>2017-09-11T08:44:22Z</time>
      </trkpt>
      <trkpt lat="47.17074" lon="5.52096">
        <ele>312</ele>
        <time>2017-09-11T08:44:32Z</time>
      </trkpt>
      <trkpt lat="47.17083" lon="5.52099">
        <ele>312</ele>
        <time>2017-09-11T08:44:38Z</time>
      </trkpt>
      <trkpt lat="47.17092" lon="5.521">
        <ele>312</ele>
        <time>2017-09-11T08:44:47Z</time>
      </trkpt>
      <trkpt lat="47.17099" lon="5.5211">
        <ele>312</ele>
        <time>2017-09-11T08:44:57Z</time>
      </trkpt>
      <trkpt lat="47.17108" lon="5.52116">
        <ele>313</ele>
        <time>2017-09-11T08:45:06Z</time>
      </trkpt>
      <trkpt lat="47.17116" lon="5.52121">
        <ele>313</ele>
        <time>2017-09-11T08:45:14Z</time>
      </trkpt>
      <trkpt lat="47.17125" lon="5.52125">
        <ele>313</ele>
        <time>2017-09-11T08:45:21Z</time>
      </trkpt>
      <trkpt lat="47.17159" lon="5.52153">
        <ele>310</ele>
        <time>2017-09-11T08:45:51Z</time>
      </trkpt>
      <trkpt lat="47.17167" lon="5.52158">
        <ele>311</ele>
        <time>2017-09-11T08:45:59Z</time>
      </trkpt>
      <trkpt lat="47.17175" lon="5.52167">
        <ele>312</ele>
        <time>2017-09-11T08:46:09Z</time>
      </trkpt>
      <trkpt lat="47.17181" lon="5.52178">
        <ele>313</ele>
        <time>2017-09-11T08:46:20Z</time>
      </trkpt>
      <trkpt lat="47.17197" lon="5.52192">
        <ele>316</ele>
        <time>2017-09-11T08:46:38Z</time>
      </trkpt>
      <trkpt lat="47.17206" lon="5.52201">
        <ele>316</ele>
        <time>2017-09-11T08:46:46Z</time>
      </trkpt>
      <trkpt lat="47.17222" lon="5.52215">
        <ele>315</ele>
        <time>2017-09-11T08:47:02Z</time>
      </trkpt>
      <trkpt lat="47.1723" lon="5.52222">
        <ele>314</ele>
        <time>2017-09-11T08:47:10Z</time>
      </trkpt>
      <trkpt lat="47.17239" lon="5.52225">
        <ele>314</ele>
        <time>2017-09-11T08:47:20Z</time>
      </trkpt>
      <trkpt lat="47.17273" lon="5.52249">
        <ele>317</ele>
        <time>2017-09-11T08:47:57Z</time>
      </trkpt>
      <trkpt lat="47.17297" lon="5.52271">
        <ele>322</ele>
        <time>2017-09-11T08:48:27Z</time>
      </trkpt>
      <trkpt lat="47.17332" lon="5.52298">
        <ele>326</ele>
        <time>2017-09-11T08:49:04Z</time>
      </trkpt>
      <trkpt lat="47.1734" lon="5.52306">
        <ele>326</ele>
        <time>2017-09-11T08:49:11Z</time>
      </trkpt>
      <trkpt lat="47.17345" lon="5.52314">
        <ele>327</ele>
        <time>2017-09-11T08:49:19Z</time>
      </trkpt>
      <trkpt lat="47.17355" lon="5.52317">
        <ele>327</ele>
        <time>2017-09-11T08:51:26Z</time>
      </trkpt>
      <trkpt lat="47.17364" lon="5.5232">
        <ele>326</ele>
        <time>2017-09-11T08:51:42Z</time>
      </trkpt>
      <trkpt lat="47.17388" lon="5.52342">
        <ele>327</ele>
        <time>2017-09-11T08:52:17Z</time>
      </trkpt>
      <trkpt lat="47.17407" lon="5.52355">
        <ele>327</ele>
        <time>2017-09-11T08:52:42Z</time>
      </trkpt>
      <trkpt lat="47.17414" lon="5.52362">
        <ele>328</ele>
        <time>2017-09-11T08:52:57Z</time>
      </trkpt>
      <trkpt lat="47.17422" lon="5.52371">
        <ele>328</ele>
        <time>2017-09-11T08:53:06Z</time>
      </trkpt>
      <trkpt lat="47.1743" lon="5.52377">
        <ele>330</ele>
        <time>2017-09-11T08:53:14Z</time>
      </trkpt>
      <trkpt lat="47.17443" lon="5.52389">
        <ele>333</ele>
        <time>2017-09-11T08:53:29Z</time>
      </trkpt>
      <trkpt lat="47.17448" lon="5.52393">
        <ele>334</ele>
        <time>2017-09-11T08:53:33Z</time>
      </trkpt>
      <trkpt lat="47.17451" lon="5.52397">
        <ele>334</ele>
        <time>2017-09-11T08:53:38Z</time>
      </trkpt>
      <trkpt lat="47.17455" lon="5.52401">
        <ele>334</ele>
        <time>2017-09-11T08:53:43Z</time>
      </trkpt>
      <trkpt lat="47.17464" lon="5.52408">
        <ele>334</ele>
        <time>2017-09-11T08:53:51Z</time>
      </trkpt>
      <trkpt lat="47.17467" lon="5.52413">
        <ele>334</ele>
        <time>2017-09-11T08:53:58Z</time>
      </trkpt>
      <trkpt lat="47.1747" lon="5.52419">
        <ele>335</ele>
        <time>2017-09-11T08:54:04Z</time>
      </trkpt>
      <trkpt lat="47.17472" lon="5.52433">
        <ele>338</ele>
        <time>2017-09-11T08:54:22Z</time>
      </trkpt>
      <trkpt lat="47.17467" lon="5.52444">
        <ele>339</ele>
        <time>2017-09-11T08:54:36Z</time>
      </trkpt>
      <trkpt lat="47.17466" lon="5.52486">
        <ele>340</ele>
        <time>2017-09-11T08:55:10Z</time>
      </trkpt>
      <trkpt lat="47.17466" lon="5.52499">
        <ele>340</ele>
        <time>2017-09-11T08:55:21Z</time>
      </trkpt>
      <trkpt lat="47.17463" lon="5.52512">
        <ele>339</ele>
        <time>2017-09-11T08:55:31Z</time>
      </trkpt>
      <trkpt lat="47.17441" lon="5.52538">
        <ele>336</ele>
        <time>2017-09-11T08:56:01Z</time>
      </trkpt>
      <trkpt lat="47.17441" lon="5.52553">
        <ele>334</ele>
        <time>2017-09-11T08:56:15Z</time>
      </trkpt>
      <trkpt lat="47.17438" lon="5.52566">
        <ele>334</ele>
        <time>2017-09-11T08:56:24Z</time>
      </trkpt>
      <trkpt lat="47.17437" lon="5.5258">
        <ele>333</ele>
        <time>2017-09-11T08:56:32Z</time>
      </trkpt>
      <trkpt lat="47.17435" lon="5.52594">
        <ele>334</ele>
        <time>2017-09-11T08:56:43Z</time>
      </trkpt>
      <trkpt lat="47.17428" lon="5.52602">
        <ele>334</ele>
        <time>2017-09-11T08:56:56Z</time>
      </trkpt>
      <trkpt lat="47.17429" lon="5.52617">
        <ele>334</ele>
        <time>2017-09-11T08:57:04Z</time>
      </trkpt>
      <trkpt lat="47.17426" lon="5.5263">
        <ele>334</ele>
        <time>2017-09-11T08:57:12Z</time>
      </trkpt>
      <trkpt lat="47.17421" lon="5.52641">
        <ele>335</ele>
        <time>2017-09-11T08:57:21Z</time>
      </trkpt>
      <trkpt lat="47.17416" lon="5.52653">
        <ele>336</ele>
        <time>2017-09-11T08:57:31Z</time>
      </trkpt>
      <trkpt lat="47.17415" lon="5.52667">
        <ele>337</ele>
        <time>2017-09-11T08:57:38Z</time>
      </trkpt>
      <trkpt lat="47.17415" lon="5.52681">
        <ele>336</ele>
        <time>2017-09-11T08:57:46Z</time>
      </trkpt>
      <trkpt lat="47.17413" lon="5.52695">
        <ele>335</ele>
        <time>2017-09-11T08:57:54Z</time>
      </trkpt>
      <trkpt lat="47.17404" lon="5.52703">
        <ele>335</ele>
        <time>2017-09-11T08:58:01Z</time>
      </trkpt>
      <trkpt lat="47.17399" lon="5.52714">
        <ele>335</ele>
        <time>2017-09-11T08:58:09Z</time>
      </trkpt>
      <trkpt lat="47.17397" lon="5.52729">
        <ele>335</ele>
        <time>2017-09-11T08:58:16Z</time>
      </trkpt>
      <trkpt lat="47.17394" lon="5.52743">
        <ele>337</ele>
        <time>2017-09-11T08:58:24Z</time>
      </trkpt>
      <trkpt lat="47.17396" lon="5.52754">
        <ele>337</ele>
        <time>2017-09-11T08:58:30Z</time>
      </trkpt>
      <trkpt lat="47.17408" lon="5.52779">
        <ele>341</ele>
        <time>2017-09-11T08:58:47Z</time>
      </trkpt>
      <trkpt lat="47.17415" lon="5.5279">
        <ele>342</ele>
        <time>2017-09-11T08:58:55Z</time>
      </trkpt>
      <trkpt lat="47.17418" lon="5.52796">
        <ele>342</ele>
        <time>2017-09-11T08:58:59Z</time>
      </trkpt>
      <trkpt lat="47.17422" lon="5.52802">
        <ele>343</ele>
        <time>2017-09-11T08:59:03Z</time>
      </trkpt>
      <trkpt lat="47.17437" lon="5.52833">
        <ele>345</ele>
        <time>2017-09-11T08:59:24Z</time>
      </trkpt>
      <trkpt lat="47.17442" lon="5.52835">
        <ele>345</ele>
        <time>2017-09-11T08:59:27Z</time>
      </trkpt>
      <trkpt lat="47.17452" lon="5.52857">
        <ele>347</ele>
        <time>2017-09-11T08:59:46Z</time>
      </trkpt>
      <trkpt lat="47.17456" lon="5.52871">
        <ele>348</ele>
        <time>2017-09-11T08:59:55Z</time>
      </trkpt>
      <trkpt lat="47.17463" lon="5.52878">
        <ele>348</ele>
        <time>2017-09-11T09:00:01Z</time>
      </trkpt>
      <trkpt lat="47.17465" lon="5.52891">
        <ele>348</ele>
        <time>2017-09-11T09:00:10Z</time>
      </trkpt>
      <trkpt lat="47.1747" lon="5.52903">
        <ele>349</ele>
        <time>2017-09-11T09:00:17Z</time>
      </trkpt>
      <trkpt lat="47.17471" lon="5.52917">
        <ele>349</ele>
        <time>2017-09-11T09:00:25Z</time>
      </trkpt>
      <trkpt lat="47.17482" lon="5.5294">
        <ele>349</ele>
        <time>2017-09-11T09:00:39Z</time>
      </trkpt>
      <trkpt lat="47.17487" lon="5.52952">
        <ele>349</ele>
        <time>2017-09-11T09:00:47Z</time>
      </trkpt>
      <trkpt lat="47.17499" lon="5.52976">
        <ele>349</ele>
        <time>2017-09-11T09:01:04Z</time>
      </trkpt>
      <trkpt lat="47.17503" lon="5.52988">
        <ele>348</ele>
        <time>2017-09-11T09:01:13Z</time>
      </trkpt>
      <trkpt lat="47.17508" lon="5.52994">
        <ele>348</ele>
        <time>2017-09-11T09:01:29Z</time>
      </trkpt>
      <trkpt lat="47.1751" lon="5.53003">
        <ele>348</ele>
        <time>2017-09-11T09:01:41Z</time>
      </trkpt>
      <trkpt lat="47.17508" lon="5.5301">
        <ele>348</ele>
        <time>2017-09-11T09:01:55Z</time>
      </trkpt>
      <trkpt lat="47.17512" lon="5.53014">
        <ele>348</ele>
        <time>2017-09-11T09:02:02Z</time>
      </trkpt>
      <trkpt lat="47.17517" lon="5.53013">
        <ele>350</ele>
        <time>2017-09-11T09:02:19Z</time>
      </trkpt>
      <trkpt lat="47.17516" lon="5.53025">
        <ele>353</ele>
        <time>2017-09-11T09:04:02Z</time>
      </trkpt>
      <trkpt lat="47.17516" lon="5.53032">
        <ele>354</ele>
        <time>2017-09-11T09:04:07Z</time>
      </trkpt>
      <trkpt lat="47.17514" lon="5.53048">
        <ele>352</ele>
        <time>2017-09-11T09:04:17Z</time>
      </trkpt>
      <trkpt lat="47.17511" lon="5.53062">
        <ele>352</ele>
        <time>2017-09-11T09:04:28Z</time>
      </trkpt>
      <trkpt lat="47.17509" lon="5.53069">
        <ele>352</ele>
        <time>2017-09-11T09:04:32Z</time>
      </trkpt>
      <trkpt lat="47.17505" lon="5.53075">
        <ele>351</ele>
        <time>2017-09-11T09:04:37Z</time>
      </trkpt>
      <trkpt lat="47.17501" lon="5.53079">
        <ele>351</ele>
        <time>2017-09-11T09:04:42Z</time>
      </trkpt>
      <trkpt lat="47.17491" lon="5.53084">
        <ele>353</ele>
        <time>2017-09-11T09:04:52Z</time>
      </trkpt>
      <trkpt lat="47.17487" lon="5.53088">
        <ele>353</ele>
        <time>2017-09-11T09:04:58Z</time>
      </trkpt>
      <trkpt lat="47.17484" lon="5.53093">
        <ele>354</ele>
        <time>2017-09-11T09:05:03Z</time>
      </trkpt>
      <trkpt lat="47.17479" lon="5.53097">
        <ele>354</ele>
        <time>2017-09-11T09:05:07Z</time>
      </trkpt>
      <trkpt lat="47.17476" lon="5.53103">
        <ele>355</ele>
        <time>2017-09-11T09:05:12Z</time>
      </trkpt>
      <trkpt lat="47.17472" lon="5.53107">
        <ele>355</ele>
        <time>2017-09-11T09:05:16Z</time>
      </trkpt>
      <trkpt lat="47.17467" lon="5.53109">
        <ele>355</ele>
        <time>2017-09-11T09:05:20Z</time>
      </trkpt>
      <trkpt lat="47.17464" lon="5.53114">
        <ele>354</ele>
        <time>2017-09-11T09:05:27Z</time>
      </trkpt>
      <trkpt lat="47.1746" lon="5.53117">
        <ele>354</ele>
        <time>2017-09-11T09:05:32Z</time>
      </trkpt>
      <trkpt lat="47.17455" lon="5.53117">
        <ele>354</ele>
        <time>2017-09-11T09:05:36Z</time>
      </trkpt>
      <trkpt lat="47.17438" lon="5.53112">
        <ele>357</ele>
        <time>2017-09-11T09:06:06Z</time>
      </trkpt>
      <trkpt lat="47.17433" lon="5.53098">
        <ele>357</ele>
        <time>2017-09-11T09:06:28Z</time>
      </trkpt>
      <trkpt lat="47.17428" lon="5.53095">
        <ele>357</ele>
        <time>2017-09-11T09:06:34Z</time>
      </trkpt>
      <trkpt lat="47.17425" lon="5.5309">
        <ele>357</ele>
        <time>2017-09-11T09:06:41Z</time>
      </trkpt>
      <trkpt lat="47.17421" lon="5.53085">
        <ele>357</ele>
        <time>2017-09-11T09:06:45Z</time>
      </trkpt>
      <trkpt lat="47.17416" lon="5.5308">
        <ele>357</ele>
        <time>2017-09-11T09:06:50Z</time>
      </trkpt>
      <trkpt lat="47.17407" lon="5.53074">
        <ele>356</ele>
        <time>2017-09-11T09:06:57Z</time>
      </trkpt>
      <trkpt lat="47.17403" lon="5.53071">
        <ele>355</ele>
        <time>2017-09-11T09:07:03Z</time>
      </trkpt>
      <trkpt lat="47.1739" lon="5.5306">
        <ele>354</ele>
        <time>2017-09-11T09:07:17Z</time>
      </trkpt>
      <trkpt lat="47.1738" lon="5.53056">
        <ele>353</ele>
        <time>2017-09-11T09:07:27Z</time>
      </trkpt>
      <trkpt lat="47.17372" lon="5.53049">
        <ele>352</ele>
        <time>2017-09-11T09:07:38Z</time>
      </trkpt>
      <trkpt lat="47.17362" lon="5.53046">
        <ele>351</ele>
        <time>2017-09-11T09:07:45Z</time>
      </trkpt>
      <trkpt lat="47.17354" lon="5.5304">
        <ele>349</ele>
        <time>2017-09-11T09:07:55Z</time>
      </trkpt>
      <trkpt lat="47.17346" lon="5.53029">
        <ele>345</ele>
        <time>2017-09-11T09:08:13Z</time>
      </trkpt>
      <trkpt lat="47.17338" lon="5.53023">
        <ele>342</ele>
        <time>2017-09-11T09:08:23Z</time>
      </trkpt>
      <trkpt lat="47.17323" lon="5.53006">
        <ele>338</ele>
        <time>2017-09-11T09:08:42Z</time>
      </trkpt>
      <trkpt lat="47.17306" lon="5.52995">
        <ele>336</ele>
        <time>2017-09-11T09:08:56Z</time>
      </trkpt>
      <trkpt lat="47.17299" lon="5.52987">
        <ele>335</ele>
        <time>2017-09-11T09:09:07Z</time>
      </trkpt>
      <trkpt lat="47.1729" lon="5.5298">
        <ele>335</ele>
        <time>2017-09-11T09:09:22Z</time>
      </trkpt>
      <trkpt lat="47.17278" lon="5.52971">
        <ele>331</ele>
        <time>2017-09-11T09:09:41Z</time>
      </trkpt>
      <trkpt lat="47.17274" lon="5.5297">
        <ele>330</ele>
        <time>2017-09-11T09:09:44Z</time>
      </trkpt>
      <trkpt lat="47.17268" lon="5.52972">
        <ele>328</ele>
        <time>2017-09-11T09:09:47Z</time>
      </trkpt>
      <trkpt lat="47.17258" lon="5.52969">
        <ele>327</ele>
        <time>2017-09-11T09:09:54Z</time>
      </trkpt>
      <trkpt lat="47.17254" lon="5.52965">
        <ele>327</ele>
        <time>2017-09-11T09:09:59Z</time>
      </trkpt>
      <trkpt lat="47.1725" lon="5.52961">
        <ele>326</ele>
        <time>2017-09-11T09:10:03Z</time>
      </trkpt>
      <trkpt lat="47.17235" lon="5.52956">
        <ele>324</ele>
        <time>2017-09-11T09:10:20Z</time>
      </trkpt>
      <trkpt lat="47.17231" lon="5.52953">
        <ele>324</ele>
        <time>2017-09-11T09:10:24Z</time>
      </trkpt>
      <trkpt lat="47.17226" lon="5.52949">
        <ele>324</ele>
        <time>2017-09-11T09:10:28Z</time>
      </trkpt>
      <trkpt lat="47.17218" lon="5.52939">
        <ele>325</ele>
        <time>2017-09-11T09:10:43Z</time>
      </trkpt>
      <trkpt lat="47.17208" lon="5.52935">
        <ele>327</ele>
        <time>2017-09-11T09:10:50Z</time>
      </trkpt>
      <trkpt lat="47.17198" lon="5.52939">
        <ele>327</ele>
        <time>2017-09-11T09:10:57Z</time>
      </trkpt>
      <trkpt lat="47.17189" lon="5.52939">
        <ele>325</ele>
        <time>2017-09-11T09:11:05Z</time>
      </trkpt>
      <trkpt lat="47.17174" lon="5.52934">
        <ele>321</ele>
        <time>2017-09-11T09:11:39Z</time>
      </trkpt>
      <trkpt lat="47.17154" lon="5.52904">
        <ele>317</ele>
        <time>2017-09-11T09:12:03Z</time>
      </trkpt>
      <trkpt lat="47.17144" lon="5.52903">
        <ele>316</ele>
        <time>2017-09-11T09:12:07Z</time>
      </trkpt>
      <trkpt lat="47.17135" lon="5.52899">
        <ele>315</ele>
        <time>2017-09-11T09:12:21Z</time>
      </trkpt>
      <trkpt lat="47.17128" lon="5.52891">
        <ele>315</ele>
        <time>2017-09-11T09:12:38Z</time>
      </trkpt>
      <trkpt lat="47.17109" lon="5.5288">
        <ele>313</ele>
        <time>2017-09-11T09:13:00Z</time>
      </trkpt>
      <trkpt lat="47.17099" lon="5.52877">
        <ele>313</ele>
        <time>2017-09-11T09:13:05Z</time>
      </trkpt>
      <trkpt lat="47.1709" lon="5.52868">
        <ele>312</ele>
        <time>2017-09-11T09:13:12Z</time>
      </trkpt>
      <trkpt lat="47.1708" lon="5.52864">
        <ele>312</ele>
        <time>2017-09-11T09:13:21Z</time>
      </trkpt>
      <trkpt lat="47.17061" lon="5.52857">
        <ele>309</ele>
        <time>2017-09-11T09:13:35Z</time>
      </trkpt>
      <trkpt lat="47.17045" lon="5.5285">
        <ele>309</ele>
        <time>2017-09-11T09:14:02Z</time>
      </trkpt>
      <trkpt lat="47.17036" lon="5.52848">
        <ele>310</ele>
        <time>2017-09-11T09:14:10Z</time>
      </trkpt>
      <trkpt lat="47.1702" lon="5.52836">
        <ele>312</ele>
        <time>2017-09-11T09:14:27Z</time>
      </trkpt>
      <trkpt lat="47.1701" lon="5.52833">
        <ele>312</ele>
        <time>2017-09-11T09:14:32Z</time>
      </trkpt>
      <trkpt lat="47.17002" lon="5.52827">
        <ele>311</ele>
        <time>2017-09-11T09:14:43Z</time>
      </trkpt>
      <trkpt lat="47.16972" lon="5.52824">
        <ele>308</ele>
        <time>2017-09-11T09:15:03Z</time>
      </trkpt>
      <trkpt lat="47.16962" lon="5.5283">
        <ele>305</ele>
        <time>2017-09-11T09:15:16Z</time>
      </trkpt>
      <trkpt lat="47.16953" lon="5.52834">
        <ele>306</ele>
        <time>2017-09-11T09:15:23Z</time>
      </trkpt>
      <trkpt lat="47.16944" lon="5.52832">
        <ele>306</ele>
        <time>2017-09-11T09:15:36Z</time>
      </trkpt>
      <trkpt lat="47.16926" lon="5.52825">
        <ele>306</ele>
        <time>2017-09-11T09:15:55Z</time>
      </trkpt>
      <trkpt lat="47.16916" lon="5.52825">
        <ele>306</ele>
        <time>2017-09-11T09:16:03Z</time>
      </trkpt>
      <trkpt lat="47.16878" lon="5.52813">
        <ele>303</ele>
        <time>2017-09-11T09:16:39Z</time>
      </trkpt>
      <trkpt lat="47.1686" lon="5.52811">
        <ele>302</ele>
        <time>2017-09-11T09:16:53Z</time>
      </trkpt>
      <trkpt lat="47.16851" lon="5.52809">
        <ele>304</ele>
        <time>2017-09-11T09:17:04Z</time>
      </trkpt>
      <trkpt lat="47.16841" lon="5.52806">
        <ele>304</ele>
        <time>2017-09-11T09:17:13Z</time>
      </trkpt>
      <trkpt lat="47.16825" lon="5.52804">
        <ele>303</ele>
        <time>2017-09-11T09:17:31Z</time>
      </trkpt>
      <trkpt lat="47.16807" lon="5.52796">
        <ele>299</ele>
        <time>2017-09-11T09:17:49Z</time>
      </trkpt>
      <trkpt lat="47.16797" lon="5.52794">
        <ele>299</ele>
        <time>2017-09-11T09:17:56Z</time>
      </trkpt>
      <trkpt lat="47.16788" lon="5.52797">
        <ele>298</ele>
        <time>2017-09-11T09:18:09Z</time>
      </trkpt>
      <trkpt lat="47.16779" lon="5.52792">
        <ele>296</ele>
        <time>2017-09-11T09:18:18Z</time>
      </trkpt>
      <trkpt lat="47.16727" lon="5.52782">
        <ele>291</ele>
        <time>2017-09-11T09:18:55Z</time>
      </trkpt>
      <trkpt lat="47.16708" lon="5.52781">
        <ele>290</ele>
        <time>2017-09-11T09:19:06Z</time>
      </trkpt>
      <trkpt lat="47.167" lon="5.52778">
        <ele>290</ele>
        <time>2017-09-11T09:19:16Z</time>
      </trkpt>
      <trkpt lat="47.16694" lon="5.52779">
        <ele>287</ele>
        <time>2017-09-11T09:19:22Z</time>
      </trkpt>
      <trkpt lat="47.1669" lon="5.52782">
        <ele>286</ele>
        <time>2017-09-11T09:19:27Z</time>
      </trkpt>
      <trkpt lat="47.16685" lon="5.52785">
        <ele>286</ele>
        <time>2017-09-11T09:19:32Z</time>
      </trkpt>
      <trkpt lat="47.16677" lon="5.52793">
        <ele>286</ele>
        <time>2017-09-11T09:19:41Z</time>
      </trkpt>
      <trkpt lat="47.16671" lon="5.52792">
        <ele>286</ele>
        <time>2017-09-11T09:19:45Z</time>
      </trkpt>
      <trkpt lat="47.16667" lon="5.52794">
        <ele>286</ele>
        <time>2017-09-11T09:19:49Z</time>
      </trkpt>
      <trkpt lat="47.16664" lon="5.52799">
        <ele>285</ele>
        <time>2017-09-11T09:19:53Z</time>
      </trkpt>
      <trkpt lat="47.16658" lon="5.52801">
        <ele>284</ele>
        <time>2017-09-11T09:19:58Z</time>
      </trkpt>
      <trkpt lat="47.16655" lon="5.52806">
        <ele>283</ele>
        <time>2017-09-11T09:20:03Z</time>
      </trkpt>
      <trkpt lat="47.16642" lon="5.52814">
        <ele>280</ele>
        <time>2017-09-11T09:20:16Z</time>
      </trkpt>
      <trkpt lat="47.16633" lon="5.52826">
        <ele>279</ele>
        <time>2017-09-11T09:20:38Z</time>
      </trkpt>
      <trkpt lat="47.16628" lon="5.52828">
        <ele>279</ele>
        <time>2017-09-11T09:20:44Z</time>
      </trkpt>
      <trkpt lat="47.16625" lon="5.52832">
        <ele>279</ele>
        <time>2017-09-11T09:20:51Z</time>
      </trkpt>
      <trkpt lat="47.1662" lon="5.52833">
        <ele>280</ele>
        <time>2017-09-11T09:20:57Z</time>
      </trkpt>
      <trkpt lat="47.16601" lon="5.52848">
        <ele>280</ele>
        <time>2017-09-11T09:21:25Z</time>
      </trkpt>
      <trkpt lat="47.16575" lon="5.52865">
        <ele>276</ele>
        <time>2017-09-11T09:21:52Z</time>
      </trkpt>
      <trkpt lat="47.16566" lon="5.52872">
        <ele>276</ele>
        <time>2017-09-11T09:22:06Z</time>
      </trkpt>
      <trkpt lat="47.16565" lon="5.52885">
        <ele>277</ele>
        <time>2017-09-11T09:22:18Z</time>
      </trkpt>
      <trkpt lat="47.16559" lon="5.52895">
        <ele>277</ele>
        <time>2017-09-11T09:22:31Z</time>
      </trkpt>
      <trkpt lat="47.1655" lon="5.52897">
        <ele>275</ele>
        <time>2017-09-11T09:22:46Z</time>
      </trkpt>
      <trkpt lat="47.16543" lon="5.52895">
        <ele>274</ele>
        <time>2017-09-11T09:22:58Z</time>
      </trkpt>
      <trkpt lat="47.16538" lon="5.52895">
        <ele>274</ele>
        <time>2017-09-11T09:23:01Z</time>
      </trkpt>
      <trkpt lat="47.16527" lon="5.52897">
        <ele>274</ele>
        <time>2017-09-11T09:23:07Z</time>
      </trkpt>
      <trkpt lat="47.16522" lon="5.52898">
        <ele>273</ele>
        <time>2017-09-11T09:23:10Z</time>
      </trkpt>
      <trkpt lat="47.16511" lon="5.52895">
        <ele>272</ele>
        <time>2017-09-11T09:23:20Z</time>
      </trkpt>
      <trkpt lat="47.16502" lon="5.52898">
        <ele>271</ele>
        <time>2017-09-11T09:23:33Z</time>
      </trkpt>
      <trkpt lat="47.16496" lon="5.52899">
        <ele>271</ele>
        <time>2017-09-11T09:23:38Z</time>
      </trkpt>
      <trkpt lat="47.16481" lon="5.52904">
        <ele>273</ele>
        <time>2017-09-11T09:23:48Z</time>
      </trkpt>
      <trkpt lat="47.16477" lon="5.52908">
        <ele>273</ele>
        <time>2017-09-11T09:23:52Z</time>
      </trkpt>
      <trkpt lat="47.16454" lon="5.5292">
        <ele>272</ele>
        <time>2017-09-11T09:24:28Z</time>
      </trkpt>
      <trkpt lat="47.16445" lon="5.52927">
        <ele>272</ele>
        <time>2017-09-11T09:24:36Z</time>
      </trkpt>
      <trkpt lat="47.16437" lon="5.5293">
        <ele>272</ele>
        <time>2017-09-11T09:24:43Z</time>
      </trkpt>
      <trkpt lat="47.16428" lon="5.52937">
        <ele>271</ele>
        <time>2017-09-11T09:24:50Z</time>
      </trkpt>
      <trkpt lat="47.16419" lon="5.52941">
        <ele>268</ele>
        <time>2017-09-11T09:25:00Z</time>
      </trkpt>
      <trkpt lat="47.16412" lon="5.52948">
        <ele>268</ele>
        <time>2017-09-11T09:25:08Z</time>
      </trkpt>
      <trkpt lat="47.16404" lon="5.52951">
        <ele>268</ele>
        <time>2017-09-11T09:25:13Z</time>
      </trkpt>
      <trkpt lat="47.16393" lon="5.52967">
        <ele>266</ele>
        <time>2017-09-11T09:25:26Z</time>
      </trkpt>
      <trkpt lat="47.16391" lon="5.52974">
        <ele>266</ele>
        <time>2017-09-11T09:25:31Z</time>
      </trkpt>
      <trkpt lat="47.16386" lon="5.52986">
        <ele>267</ele>
        <time>2017-09-11T09:25:42Z</time>
      </trkpt>
      <trkpt lat="47.16362" lon="5.53003">
        <ele>270</ele>
        <time>2017-09-11T09:26:08Z</time>
      </trkpt>
      <trkpt lat="47.16359" lon="5.53008">
        <ele>269</ele>
        <time>2017-09-11T09:26:13Z</time>
      </trkpt>
      <trkpt lat="47.16357" lon="5.53014">
        <ele>268</ele>
        <time>2017-09-11T09:26:31Z</time>
      </trkpt>
      <trkpt lat="47.16345" lon="5.53027">
        <ele>270</ele>
        <time>2017-09-11T09:27:24Z</time>
      </trkpt>
      <trkpt lat="47.16336" lon="5.53022">
        <ele>270</ele>
        <time>2017-09-11T09:27:31Z</time>
      </trkpt>
      <trkpt lat="47.16317" lon="5.53027">
        <ele>266</ele>
        <time>2017-09-11T09:27:43Z</time>
      </trkpt>
      <trkpt lat="47.16304" lon="5.53046">
        <ele>262</ele>
        <time>2017-09-11T09:27:56Z</time>
      </trkpt>
      <trkpt lat="47.16295" lon="5.53052">
        <ele>261</ele>
        <time>2017-09-11T09:28:04Z</time>
      </trkpt>
      <trkpt lat="47.16283" lon="5.53072">
        <ele>262</ele>
        <time>2017-09-11T09:28:23Z</time>
      </trkpt>
      <trkpt lat="47.16274" lon="5.53077">
        <ele>262</ele>
        <time>2017-09-11T09:28:33Z</time>
      </trkpt>
      <trkpt lat="47.16265" lon="5.53082">
        <ele>261</ele>
        <time>2017-09-11T09:28:40Z</time>
      </trkpt>
      <trkpt lat="47.16261" lon="5.53095">
        <ele>261</ele>
        <time>2017-09-11T09:28:46Z</time>
      </trkpt>
      <trkpt lat="47.16252" lon="5.53102">
        <ele>260</ele>
        <time>2017-09-11T09:28:52Z</time>
      </trkpt>
      <trkpt lat="47.16241" lon="5.53126">
        <ele>258</ele>
        <time>2017-09-11T09:29:09Z</time>
      </trkpt>
      <trkpt lat="47.16239" lon="5.5314">
        <ele>257</ele>
        <time>2017-09-11T09:29:16Z</time>
      </trkpt>
      <trkpt lat="47.16232" lon="5.5315">
        <ele>255</ele>
        <time>2017-09-11T09:29:32Z</time>
      </trkpt>
      <trkpt lat="47.16228" lon="5.53162">
        <ele>255</ele>
        <time>2017-09-11T09:29:44Z</time>
      </trkpt>
      <trkpt lat="47.16224" lon="5.53174">
        <ele>257</ele>
        <time>2017-09-11T09:29:55Z</time>
      </trkpt>
      <trkpt lat="47.16225" lon="5.53182">
        <ele>257</ele>
        <time>2017-09-11T09:30:08Z</time>
      </trkpt>
      <trkpt lat="47.16221" lon="5.53187">
        <ele>255</ele>
        <time>2017-09-11T09:30:22Z</time>
      </trkpt>
      <trkpt lat="47.16216" lon="5.53188">
        <ele>254</ele>
        <time>2017-09-11T09:30:26Z</time>
      </trkpt>
      <trkpt lat="47.16207" lon="5.53186">
        <ele>253</ele>
        <time>2017-09-11T09:30:31Z</time>
      </trkpt>
      <trkpt lat="47.16202" lon="5.53188">
        <ele>253</ele>
        <time>2017-09-11T09:30:35Z</time>
      </trkpt>
      <trkpt lat="47.16199" lon="5.53193">
        <ele>254</ele>
        <time>2017-09-11T09:30:40Z</time>
      </trkpt>
      <trkpt lat="47.16194" lon="5.53194">
        <ele>254</ele>
        <time>2017-09-11T09:30:45Z</time>
      </trkpt>
      <trkpt lat="47.1619" lon="5.53198">
        <ele>255</ele>
        <time>2017-09-11T09:30:52Z</time>
      </trkpt>
      <trkpt lat="47.16182" lon="5.53208">
        <ele>254</ele>
        <time>2017-09-11T09:31:01Z</time>
      </trkpt>
      <trkpt lat="47.16172" lon="5.5321">
        <ele>253</ele>
        <time>2017-09-11T09:31:08Z</time>
      </trkpt>
      <trkpt lat="47.1616" lon="5.53221">
        <ele>254</ele>
        <time>2017-09-11T09:31:23Z</time>
      </trkpt>
      <trkpt lat="47.16155" lon="5.53223">
        <ele>254</ele>
        <time>2017-09-11T09:31:27Z</time>
      </trkpt>
      <trkpt lat="47.16149" lon="5.53234">
        <ele>254</ele>
        <time>2017-09-11T09:31:38Z</time>
      </trkpt>
      <trkpt lat="47.16137" lon="5.53245">
        <ele>254</ele>
        <time>2017-09-11T09:31:53Z</time>
      </trkpt>
      <trkpt lat="47.16132" lon="5.53255">
        <ele>253</ele>
        <time>2017-09-11T09:32:00Z</time>
      </trkpt>
      <trkpt lat="47.16126" lon="5.53259">
        <ele>253</ele>
        <time>2017-09-11T09:32:04Z</time>
      </trkpt>
      <trkpt lat="47.1612" lon="5.5327">
        <ele>252</ele>
        <time>2017-09-11T09:32:11Z</time>
      </trkpt>
      <trkpt lat="47.16109" lon="5.53274">
        <ele>251</ele>
        <time>2017-09-11T09:32:21Z</time>
      </trkpt>
      <trkpt lat="47.16104" lon="5.53272">
        <ele>251</ele>
        <time>2017-09-11T09:32:24Z</time>
      </trkpt>
      <trkpt lat="47.161" lon="5.53276">
        <ele>251</ele>
        <time>2017-09-11T09:32:28Z</time>
      </trkpt>
      <trkpt lat="47.16099" lon="5.53283">
        <ele>250</ele>
        <time>2017-09-11T09:32:31Z</time>
      </trkpt>
      <trkpt lat="47.16089" lon="5.53299">
        <ele>249</ele>
        <time>2017-09-11T09:32:48Z</time>
      </trkpt>
      <trkpt lat="47.16084" lon="5.53301">
        <ele>248</ele>
        <time>2017-09-11T09:32:56Z</time>
      </trkpt>
      <trkpt lat="47.1608" lon="5.53304">
        <ele>249</ele>
        <time>2017-09-11T09:33:00Z</time>
      </trkpt>
      <trkpt lat="47.16075" lon="5.53305">
        <ele>249</ele>
        <time>2017-09-11T09:33:04Z</time>
      </trkpt>
      <trkpt lat="47.16065" lon="5.53306">
        <ele>249</ele>
        <time>2017-09-11T09:33:13Z</time>
      </trkpt>
      <trkpt lat="47.16047" lon="5.53309">
        <ele>248</ele>
        <time>2017-09-11T09:33:24Z</time>
      </trkpt>
      <trkpt lat="47.16041" lon="5.53311">
        <ele>248</ele>
        <time>2017-09-11T09:33:28Z</time>
      </trkpt>
      <trkpt lat="47.16032" lon="5.53316">
        <ele>250</ele>
        <time>2017-09-11T09:33:37Z</time>
      </trkpt>
      <trkpt lat="47.16029" lon="5.53323">
        <ele>250</ele>
        <time>2017-09-11T09:33:42Z</time>
      </trkpt>
      <trkpt lat="47.16025" lon="5.53329">
        <ele>249</ele>
        <time>2017-09-11T09:33:47Z</time>
      </trkpt>
      <trkpt lat="47.1602" lon="5.53327">
        <ele>249</ele>
        <time>2017-09-11T09:33:52Z</time>
      </trkpt>
      <trkpt lat="47.15987" lon="5.5334">
        <ele>249</ele>
        <time>2017-09-11T09:34:24Z</time>
      </trkpt>
      <trkpt lat="47.15979" lon="5.53344">
        <ele>248</ele>
        <time>2017-09-11T09:34:31Z</time>
      </trkpt>
      <trkpt lat="47.1597" lon="5.5335">
        <ele>247</ele>
        <time>2017-09-11T09:34:39Z</time>
      </trkpt>
      <trkpt lat="47.15961" lon="5.53356">
        <ele>248</ele>
        <time>2017-09-11T09:34:49Z</time>
      </trkpt>
      <trkpt lat="47.15942" lon="5.53389">
        <ele>246</ele>
        <time>2017-09-11T09:35:11Z</time>
      </trkpt>
      <trkpt lat="47.15935" lon="5.53399">
        <ele>245</ele>
        <time>2017-09-11T09:35:19Z</time>
      </trkpt>
      <trkpt lat="47.15934" lon="5.53407">
        <ele>245</ele>
        <time>2017-09-11T09:35:22Z</time>
      </trkpt>
      <trkpt lat="47.15929" lon="5.5342">
        <ele>243</ele>
        <time>2017-09-11T09:35:33Z</time>
      </trkpt>
      <trkpt lat="47.15928" lon="5.53427">
        <ele>243</ele>
        <time>2017-09-11T09:35:37Z</time>
      </trkpt>
      <trkpt lat="47.15926" lon="5.53433">
        <ele>242</ele>
        <time>2017-09-11T09:35:42Z</time>
      </trkpt>
      <trkpt lat="47.15923" lon="5.53438">
        <ele>242</ele>
        <time>2017-09-11T09:35:47Z</time>
      </trkpt>
      <trkpt lat="47.15919" lon="5.53443">
        <ele>243</ele>
        <time>2017-09-11T09:35:53Z</time>
      </trkpt>
      <trkpt lat="47.15914" lon="5.53448">
        <ele>243</ele>
        <time>2017-09-11T09:35:57Z</time>
      </trkpt>
      <trkpt lat="47.15911" lon="5.53461">
        <ele>243</ele>
        <time>2017-09-11T09:36:06Z</time>
      </trkpt>
      <trkpt lat="47.15904" lon="5.53472">
        <ele>244</ele>
        <time>2017-09-11T09:36:16Z</time>
      </trkpt>
      <trkpt lat="47.15897" lon="5.53483">
        <ele>243</ele>
        <time>2017-09-11T09:36:25Z</time>
      </trkpt>
      <trkpt lat="47.15894" lon="5.53496">
        <ele>242</ele>
        <time>2017-09-11T09:36:34Z</time>
      </trkpt>
      <trkpt lat="47.1589" lon="5.53508">
        <ele>242</ele>
        <time>2017-09-11T09:36:43Z</time>
      </trkpt>
      <trkpt lat="47.15886" lon="5.53511">
        <ele>242</ele>
        <time>2017-09-11T09:36:48Z</time>
      </trkpt>
      <trkpt lat="47.15882" lon="5.53514">
        <ele>242</ele>
        <time>2017-09-11T09:36:54Z</time>
      </trkpt>
      <trkpt lat="47.15874" lon="5.53522">
        <ele>241</ele>
        <time>2017-09-11T09:37:07Z</time>
      </trkpt>
      <trkpt lat="47.15864" lon="5.53527">
        <ele>241</ele>
        <time>2017-09-11T09:37:16Z</time>
      </trkpt>
      <trkpt lat="47.15859" lon="5.53528">
        <ele>240</ele>
        <time>2017-09-11T09:37:20Z</time>
      </trkpt>
      <trkpt lat="47.15855" lon="5.53531">
        <ele>240</ele>
        <time>2017-09-11T09:37:25Z</time>
      </trkpt>
      <trkpt lat="47.15852" lon="5.53536">
        <ele>240</ele>
        <time>2017-09-11T09:37:29Z</time>
      </trkpt>
      <trkpt lat="47.15844" lon="5.53544">
        <ele>240</ele>
        <time>2017-09-11T09:37:40Z</time>
      </trkpt>
      <trkpt lat="47.15837" lon="5.53554">
        <ele>240</ele>
        <time>2017-09-11T09:37:46Z</time>
      </trkpt>
      <trkpt lat="47.15833" lon="5.53566">
        <ele>239</ele>
        <time>2017-09-11T09:37:52Z</time>
      </trkpt>
      <trkpt lat="47.1583" lon="5.53571">
        <ele>238</ele>
        <time>2017-09-11T09:37:56Z</time>
      </trkpt>
      <trkpt lat="47.15829" lon="5.53584">
        <ele>236</ele>
        <time>2017-09-11T09:38:04Z</time>
      </trkpt>
      <trkpt lat="47.15823" lon="5.5359">
        <ele>233</ele>
        <time>2017-09-11T09:40:24Z</time>
      </trkpt>
      <trkpt lat="47.15822" lon="5.53601">
        <ele>234</ele>
        <time>2017-09-11T09:40:42Z</time>
      </trkpt>
      <trkpt lat="47.15824" lon="5.53607">
        <ele>234</ele>
        <time>2017-09-11T09:40:49Z</time>
      </trkpt>
      <trkpt lat="47.15826" lon="5.53613">
        <ele>233</ele>
        <time>2017-09-11T09:40:57Z</time>
      </trkpt>
      <trkpt lat="47.15828" lon="5.53622">
        <ele>232</ele>
        <time>2017-09-11T09:41:12Z</time>
      </trkpt>
      <trkpt lat="47.15837" lon="5.53637">
        <ele>234</ele>
        <time>2017-09-11T09:41:47Z</time>
      </trkpt>
      <trkpt lat="47.1584" lon="5.53643">
        <ele>234</ele>
        <time>2017-09-11T09:41:54Z</time>
      </trkpt>
      <trkpt lat="47.15853" lon="5.53659">
        <ele>236</ele>
        <time>2017-09-11T09:42:15Z</time>
      </trkpt>
      <trkpt lat="47.15854" lon="5.53673">
        <ele>237</ele>
        <time>2017-09-11T09:42:28Z</time>
      </trkpt>
      <trkpt lat="47.15854" lon="5.5368">
        <ele>238</ele>
        <time>2017-09-11T09:42:34Z</time>
      </trkpt>
      <trkpt lat="47.15856" lon="5.53694">
        <ele>238</ele>
        <time>2017-09-11T09:42:44Z</time>
      </trkpt>
      <trkpt lat="47.15855" lon="5.53701">
        <ele>238</ele>
        <time>2017-09-11T09:42:53Z</time>
      </trkpt>
      <trkpt lat="47.15855" lon="5.53709">
        <ele>238</ele>
        <time>2017-09-11T09:42:59Z</time>
      </trkpt>
      <trkpt lat="47.15851" lon="5.53723">
        <ele>241</ele>
        <time>2017-09-11T09:43:15Z</time>
      </trkpt>
      <trkpt lat="47.1584" lon="5.53739">
        <ele>245</ele>
        <time>2017-09-11T09:43:30Z</time>
      </trkpt>
      <trkpt lat="47.15839" lon="5.53748">
        <ele>246</ele>
        <time>2017-09-11T09:43:34Z</time>
      </trkpt>
      <trkpt lat="47.15831" lon="5.53775">
        <ele>247</ele>
        <time>2017-09-11T09:43:51Z</time>
      </trkpt>
      <trkpt lat="47.15831" lon="5.53783">
        <ele>248</ele>
        <time>2017-09-11T09:43:55Z</time>
      </trkpt>
      <trkpt lat="47.15829" lon="5.53789">
        <ele>248</ele>
        <time>2017-09-11T09:43:59Z</time>
      </trkpt>
      <trkpt lat="47.15824" lon="5.53813">
        <ele>247</ele>
        <time>2017-09-11T09:44:11Z</time>
      </trkpt>
      <trkpt lat="47.15824" lon="5.53821">
        <ele>247</ele>
        <time>2017-09-11T09:44:15Z</time>
      </trkpt>
      <trkpt lat="47.15825" lon="5.53829">
        <ele>247</ele>
        <time>2017-09-11T09:44:18Z</time>
      </trkpt>
      <trkpt lat="47.15823" lon="5.53835">
        <ele>248</ele>
        <time>2017-09-11T09:44:22Z</time>
      </trkpt>
      <trkpt lat="47.1582" lon="5.53841">
        <ele>247</ele>
        <time>2017-09-11T09:44:26Z</time>
      </trkpt>
      <trkpt lat="47.15817" lon="5.53848">
        <ele>247</ele>
        <time>2017-09-11T09:44:30Z</time>
      </trkpt>
      <trkpt lat="47.15814" lon="5.53853">
        <ele>247</ele>
        <time>2017-09-11T09:44:34Z</time>
      </trkpt>
      <trkpt lat="47.1581" lon="5.53856">
        <ele>247</ele>
        <time>2017-09-11T09:44:40Z</time>
      </trkpt>
      <trkpt lat="47.15807" lon="5.53871">
        <ele>249</ele>
        <time>2017-09-11T09:44:52Z</time>
      </trkpt>
      <trkpt lat="47.15805" lon="5.53877">
        <ele>249</ele>
        <time>2017-09-11T09:44:57Z</time>
      </trkpt>
      <trkpt lat="47.15803" lon="5.53885">
        <ele>248</ele>
        <time>2017-09-11T09:45:03Z</time>
      </trkpt>
      <trkpt lat="47.15801" lon="5.5389">
        <ele>248</ele>
        <time>2017-09-11T09:45:08Z</time>
      </trkpt>
      <trkpt lat="47.15796" lon="5.53895">
        <ele>248</ele>
        <time>2017-09-11T09:45:12Z</time>
      </trkpt>
      <trkpt lat="47.15792" lon="5.539">
        <ele>248</ele>
        <time>2017-09-11T09:45:16Z</time>
      </trkpt>
      <trkpt lat="47.15791" lon="5.53915">
        <ele>248</ele>
        <time>2017-09-11T09:45:22Z</time>
      </trkpt>
      <trkpt lat="47.15787" lon="5.5392">
        <ele>248</ele>
        <time>2017-09-11T09:45:26Z</time>
      </trkpt>
      <trkpt lat="47.15784" lon="5.53926">
        <ele>248</ele>
        <time>2017-09-11T09:45:30Z</time>
      </trkpt>
      <trkpt lat="47.15782" lon="5.53933">
        <ele>247</ele>
        <time>2017-09-11T09:45:33Z</time>
      </trkpt>
      <trkpt lat="47.15775" lon="5.53943">
        <ele>247</ele>
        <time>2017-09-11T09:45:40Z</time>
      </trkpt>
      <trkpt lat="47.15772" lon="5.53956">
        <ele>248</ele>
        <time>2017-09-11T09:45:48Z</time>
      </trkpt>
      <trkpt lat="47.15771" lon="5.53964">
        <ele>248</ele>
        <time>2017-09-11T09:45:52Z</time>
      </trkpt>
      <trkpt lat="47.15769" lon="5.5397">
        <ele>248</ele>
        <time>2017-09-11T09:45:56Z</time>
      </trkpt>
      <trkpt lat="47.15765" lon="5.53997">
        <ele>245</ele>
        <time>2017-09-11T09:46:14Z</time>
      </trkpt>
      <trkpt lat="47.15763" lon="5.54003">
        <ele>244</ele>
        <time>2017-09-11T09:46:19Z</time>
      </trkpt>
      <trkpt lat="47.15763" lon="5.54012">
        <ele>244</ele>
        <time>2017-09-11T09:46:23Z</time>
      </trkpt>
      <trkpt lat="47.15764" lon="5.54043">
        <ele>244</ele>
        <time>2017-09-11T09:46:36Z</time>
      </trkpt>
      <trkpt lat="47.15763" lon="5.5405">
        <ele>244</ele>
        <time>2017-09-11T09:46:40Z</time>
      </trkpt>
      <trkpt lat="47.15761" lon="5.54056">
        <ele>243</ele>
        <time>2017-09-11T09:46:44Z</time>
      </trkpt>
      <trkpt lat="47.15762" lon="5.54073">
        <ele>242</ele>
        <time>2017-09-11T09:46:51Z</time>
      </trkpt>
      <trkpt lat="47.15761" lon="5.54088">
        <ele>241</ele>
        <time>2017-09-11T09:47:01Z</time>
      </trkpt>
      <trkpt lat="47.15758" lon="5.54094">
        <ele>240</ele>
        <time>2017-09-11T09:47:07Z</time>
      </trkpt>
      <trkpt lat="47.15755" lon="5.54108">
        <ele>242</ele>
        <time>2017-09-11T09:47:18Z</time>
      </trkpt>
      <trkpt lat="47.15749" lon="5.5412">
        <ele>244</ele>
        <time>2017-09-11T09:47:29Z</time>
      </trkpt>
      <trkpt lat="47.15745" lon="5.54123">
        <ele>243</ele>
        <time>2017-09-11T09:47:32Z</time>
      </trkpt>
      <trkpt lat="47.15739" lon="5.54125">
        <ele>243</ele>
        <time>2017-09-11T09:47:36Z</time>
      </trkpt>
      <trkpt lat="47.15736" lon="5.54129">
        <ele>243</ele>
        <time>2017-09-11T09:47:42Z</time>
      </trkpt>
      <trkpt lat="47.15733" lon="5.54136">
        <ele>244</ele>
        <time>2017-09-11T09:47:46Z</time>
      </trkpt>
      <trkpt lat="47.15732" lon="5.54144">
        <ele>245</ele>
        <time>2017-09-11T09:47:50Z</time>
      </trkpt>
      <trkpt lat="47.15729" lon="5.5415">
        <ele>245</ele>
        <time>2017-09-11T09:47:54Z</time>
      </trkpt>
      <trkpt lat="47.15724" lon="5.54151">
        <ele>244</ele>
        <time>2017-09-11T09:47:58Z</time>
      </trkpt>
      <trkpt lat="47.15721" lon="5.54156">
        <ele>244</ele>
        <time>2017-09-11T09:48:02Z</time>
      </trkpt>
      <trkpt lat="47.15716" lon="5.54159">
        <ele>243</ele>
        <time>2017-09-11T09:48:06Z</time>
      </trkpt>
      <trkpt lat="47.15713" lon="5.54164">
        <ele>243</ele>
        <time>2017-09-11T09:48:13Z</time>
      </trkpt>
      <trkpt lat="47.15704" lon="5.5417">
        <ele>244</ele>
        <time>2017-09-11T09:48:23Z</time>
      </trkpt>
      <trkpt lat="47.157" lon="5.54176">
        <ele>245</ele>
        <time>2017-09-11T09:48:28Z</time>
      </trkpt>
      <trkpt lat="47.15698" lon="5.54183">
        <ele>245</ele>
        <time>2017-09-11T09:48:33Z</time>
      </trkpt>
      <trkpt lat="47.15694" lon="5.54189">
        <ele>245</ele>
        <time>2017-09-11T09:48:37Z</time>
      </trkpt>
      <trkpt lat="47.15689" lon="5.54193">
        <ele>245</ele>
        <time>2017-09-11T09:48:43Z</time>
      </trkpt>
      <trkpt lat="47.15682" lon="5.54203">
        <ele>245</ele>
        <time>2017-09-11T09:48:52Z</time>
      </trkpt>
      <trkpt lat="47.15679" lon="5.54208">
        <ele>245</ele>
        <time>2017-09-11T09:48:56Z</time>
      </trkpt>
      <trkpt lat="47.15669" lon="5.54213">
        <ele>245</ele>
        <time>2017-09-11T09:49:04Z</time>
      </trkpt>
      <trkpt lat="47.15666" lon="5.5422">
        <ele>244</ele>
        <time>2017-09-11T09:49:09Z</time>
      </trkpt>
      <trkpt lat="47.15663" lon="5.54225">
        <ele>244</ele>
        <time>2017-09-11T09:49:14Z</time>
      </trkpt>
      <trkpt lat="47.15661" lon="5.54231">
        <ele>243</ele>
        <time>2017-09-11T09:49:28Z</time>
      </trkpt>
      <trkpt lat="47.15663" lon="5.54239">
        <ele>242</ele>
        <time>2017-09-11T09:49:33Z</time>
      </trkpt>
      <trkpt lat="47.15657" lon="5.54242">
        <ele>242</ele>
        <time>2017-09-11T09:53:53Z</time>
      </trkpt>
      <trkpt lat="47.15638" lon="5.54263">
        <ele>244</ele>
        <time>2017-09-11T09:55:57Z</time>
      </trkpt>
      <trkpt lat="47.15636" lon="5.5427">
        <ele>244</ele>
        <time>2017-09-11T09:56:01Z</time>
      </trkpt>
      <trkpt lat="47.15631" lon="5.54272">
        <ele>245</ele>
        <time>2017-09-11T09:56:06Z</time>
      </trkpt>
      <trkpt lat="47.15628" lon="5.54277">
        <ele>245</ele>
        <time>2017-09-11T09:56:11Z</time>
      </trkpt>
      <trkpt lat="47.15631" lon="5.54283">
        <ele>244</ele>
        <time>2017-09-11T09:56:22Z</time>
      </trkpt>
      <trkpt lat="47.15634" lon="5.5429">
        <ele>242</ele>
        <time>2017-09-11T09:56:26Z</time>
      </trkpt>
      <trkpt lat="47.15629" lon="5.54291">
        <ele>240</ele>
        <time>2017-09-11T09:56:30Z</time>
      </trkpt>
      <trkpt lat="47.15621" lon="5.54298">
        <ele>238</ele>
        <time>2017-09-11T09:56:40Z</time>
      </trkpt>
      <trkpt lat="47.15616" lon="5.54299">
        <ele>238</ele>
        <time>2017-09-11T09:56:44Z</time>
      </trkpt>
      <trkpt lat="47.15611" lon="5.543">
        <ele>239</ele>
        <time>2017-09-11T09:56:51Z</time>
      </trkpt>
      <trkpt lat="47.15606" lon="5.54301">
        <ele>239</ele>
        <time>2017-09-11T09:56:55Z</time>
      </trkpt>
      <trkpt lat="47.15602" lon="5.54304">
        <ele>239</ele>
        <time>2017-09-11T09:57:00Z</time>
      </trkpt>
      <trkpt lat="47.15598" lon="5.54309">
        <ele>240</ele>
        <time>2017-09-11T09:57:05Z</time>
      </trkpt>
      <trkpt lat="47.15594" lon="5.54313">
        <ele>240</ele>
        <time>2017-09-11T09:57:09Z</time>
      </trkpt>
      <trkpt lat="47.15584" lon="5.54317">
        <ele>239</ele>
        <time>2017-09-11T09:57:17Z</time>
      </trkpt>
      <trkpt lat="47.15579" lon="5.54316">
        <ele>239</ele>
        <time>2017-09-11T09:57:20Z</time>
      </trkpt>
      <trkpt lat="47.15574" lon="5.54319">
        <ele>238</ele>
        <time>2017-09-11T09:57:24Z</time>
      </trkpt>
      <trkpt lat="47.15569" lon="5.54322">
        <ele>238</ele>
        <time>2017-09-11T09:57:29Z</time>
      </trkpt>
      <trkpt lat="47.15564" lon="5.54324">
        <ele>238</ele>
        <time>2017-09-11T09:57:34Z</time>
      </trkpt>
      <trkpt lat="47.1555" lon="5.54334">
        <ele>238</ele>
        <time>2017-09-11T09:57:45Z</time>
      </trkpt>
      <trkpt lat="47.15546" lon="5.54338">
        <ele>238</ele>
        <time>2017-09-11T09:57:49Z</time>
      </trkpt>
      <trkpt lat="47.15542" lon="5.54342">
        <ele>239</ele>
        <time>2017-09-11T09:57:53Z</time>
      </trkpt>
      <trkpt lat="47.15538" lon="5.54344">
        <ele>239</ele>
        <time>2017-09-11T09:57:57Z</time>
      </trkpt>
      <trkpt lat="47.15533" lon="5.54347">
        <ele>239</ele>
        <time>2017-09-11T09:58:01Z</time>
      </trkpt>
      <trkpt lat="47.15529" lon="5.54354">
        <ele>238</ele>
        <time>2017-09-11T09:58:05Z</time>
      </trkpt>
      <trkpt lat="47.15525" lon="5.54358">
        <ele>237</ele>
        <time>2017-09-11T09:58:08Z</time>
      </trkpt>
      <trkpt lat="47.15523" lon="5.54365">
        <ele>237</ele>
        <time>2017-09-11T09:58:13Z</time>
      </trkpt>
      <trkpt lat="47.1552" lon="5.54371">
        <ele>237</ele>
        <time>2017-09-11T09:58:17Z</time>
      </trkpt>
      <trkpt lat="47.15515" lon="5.54373">
        <ele>237</ele>
        <time>2017-09-11T09:58:21Z</time>
      </trkpt>
      <trkpt lat="47.15511" lon="5.54374">
        <ele>237</ele>
        <time>2017-09-11T09:58:25Z</time>
      </trkpt>
      <trkpt lat="47.15501" lon="5.54382">
        <ele>237</ele>
        <time>2017-09-11T09:58:32Z</time>
      </trkpt>
      <trkpt lat="47.15498" lon="5.54386">
        <ele>237</ele>
        <time>2017-09-11T09:58:36Z</time>
      </trkpt>
      <trkpt lat="47.15494" lon="5.54391">
        <ele>237</ele>
        <time>2017-09-11T09:58:41Z</time>
      </trkpt>
      <trkpt lat="47.15489" lon="5.54393">
        <ele>237</ele>
        <time>2017-09-11T09:58:45Z</time>
      </trkpt>
      <trkpt lat="47.15485" lon="5.54398">
        <ele>237</ele>
        <time>2017-09-11T09:58:49Z</time>
      </trkpt>
      <trkpt lat="47.15476" lon="5.54405">
        <ele>238</ele>
        <time>2017-09-11T09:58:56Z</time>
      </trkpt>
      <trkpt lat="47.1547" lon="5.54416">
        <ele>239</ele>
        <time>2017-09-11T09:59:07Z</time>
      </trkpt>
      <trkpt lat="47.15469" lon="5.54431">
        <ele>238</ele>
        <time>2017-09-11T09:59:15Z</time>
      </trkpt>
      <trkpt lat="47.15469" lon="5.54438">
        <ele>238</ele>
        <time>2017-09-11T09:59:19Z</time>
      </trkpt>
      <trkpt lat="47.15469" lon="5.54445">
        <ele>237</ele>
        <time>2017-09-11T09:59:24Z</time>
      </trkpt>
      <trkpt lat="47.15466" lon="5.5445">
        <ele>236</ele>
        <time>2017-09-11T09:59:28Z</time>
      </trkpt>
      <trkpt lat="47.15465" lon="5.54457">
        <ele>235</ele>
        <time>2017-09-11T09:59:31Z</time>
      </trkpt>
      <trkpt lat="47.15463" lon="5.54463">
        <ele>235</ele>
        <time>2017-09-11T09:59:34Z</time>
      </trkpt>
      <trkpt lat="47.15459" lon="5.54467">
        <ele>236</ele>
        <time>2017-09-11T09:59:39Z</time>
      </trkpt>
      <trkpt lat="47.15453" lon="5.54468">
        <ele>236</ele>
        <time>2017-09-11T09:59:43Z</time>
      </trkpt>
      <trkpt lat="47.15449" lon="5.54472">
        <ele>237</ele>
        <time>2017-09-11T09:59:48Z</time>
      </trkpt>
      <trkpt lat="47.15445" lon="5.54477">
        <ele>237</ele>
        <time>2017-09-11T09:59:52Z</time>
      </trkpt>
      <trkpt lat="47.1544" lon="5.54481">
        <ele>236</ele>
        <time>2017-09-11T09:59:57Z</time>
      </trkpt>
      <trkpt lat="47.15436" lon="5.54486">
        <ele>236</ele>
        <time>2017-09-11T10:00:01Z</time>
      </trkpt>
      <trkpt lat="47.1543" lon="5.54487">
        <ele>237</ele>
        <time>2017-09-11T10:00:05Z</time>
      </trkpt>
      <trkpt lat="47.15427" lon="5.54493">
        <ele>237</ele>
        <time>2017-09-11T10:00:10Z</time>
      </trkpt>
      <trkpt lat="47.15429" lon="5.54501">
        <ele>235</ele>
        <time>2017-09-11T10:00:13Z</time>
      </trkpt>
      <trkpt lat="47.15428" lon="5.54508">
        <ele>233</ele>
        <time>2017-09-11T10:00:21Z</time>
      </trkpt>
      <trkpt lat="47.15423" lon="5.54511">
        <ele>233</ele>
        <time>2017-09-11T10:00:28Z</time>
      </trkpt>
      <trkpt lat="47.15419" lon="5.54511">
        <ele>233</ele>
        <time>2017-09-11T10:00:33Z</time>
      </trkpt>
      <trkpt lat="47.15413" lon="5.54513">
        <ele>233</ele>
        <time>2017-09-11T10:00:39Z</time>
      </trkpt>
      <trkpt lat="47.15408" lon="5.54516">
        <ele>233</ele>
        <time>2017-09-11T10:00:43Z</time>
      </trkpt>
      <trkpt lat="47.154" lon="5.54523">
        <ele>232</ele>
        <time>2017-09-11T10:00:51Z</time>
      </trkpt>
      <trkpt lat="47.15395" lon="5.54525">
        <ele>231</ele>
        <time>2017-09-11T10:00:55Z</time>
      </trkpt>
      <trkpt lat="47.1539" lon="5.54529">
        <ele>231</ele>
        <time>2017-09-11T10:00:58Z</time>
      </trkpt>
      <trkpt lat="47.15376" lon="5.54537">
        <ele>232</ele>
        <time>2017-09-11T10:01:09Z</time>
      </trkpt>
      <trkpt lat="47.15367" lon="5.54544">
        <ele>232</ele>
        <time>2017-09-11T10:01:18Z</time>
      </trkpt>
      <trkpt lat="47.15363" lon="5.54547">
        <ele>232</ele>
        <time>2017-09-11T10:01:22Z</time>
      </trkpt>
      <trkpt lat="47.15355" lon="5.54556">
        <ele>231</ele>
        <time>2017-09-11T10:01:30Z</time>
      </trkpt>
      <trkpt lat="47.15336" lon="5.5457">
        <ele>232</ele>
        <time>2017-09-11T10:01:50Z</time>
      </trkpt>
      <trkpt lat="47.15331" lon="5.54572">
        <ele>233</ele>
        <time>2017-09-11T10:01:56Z</time>
      </trkpt>
      <trkpt lat="47.15326" lon="5.54576">
        <ele>233</ele>
        <time>2017-09-11T10:02:00Z</time>
      </trkpt>
      <trkpt lat="47.1532" lon="5.54577">
        <ele>234</ele>
        <time>2017-09-11T10:02:04Z</time>
      </trkpt>
      <trkpt lat="47.15311" lon="5.54583">
        <ele>234</ele>
        <time>2017-09-11T10:02:12Z</time>
      </trkpt>
      <trkpt lat="47.15305" lon="5.54582">
        <ele>234</ele>
        <time>2017-09-11T10:02:15Z</time>
      </trkpt>
      <trkpt lat="47.153" lon="5.54582">
        <ele>234</ele>
        <time>2017-09-11T10:02:18Z</time>
      </trkpt>
      <trkpt lat="47.15295" lon="5.54586">
        <ele>234</ele>
        <time>2017-09-11T10:02:22Z</time>
      </trkpt>
      <trkpt lat="47.15288" lon="5.54586">
        <ele>234</ele>
        <time>2017-09-11T10:02:26Z</time>
      </trkpt>
      <trkpt lat="47.15284" lon="5.54592">
        <ele>234</ele>
        <time>2017-09-11T10:02:31Z</time>
      </trkpt>
      <trkpt lat="47.15275" lon="5.54599">
        <ele>234</ele>
        <time>2017-09-11T10:02:39Z</time>
      </trkpt>
      <trkpt lat="47.15265" lon="5.54608">
        <ele>234</ele>
        <time>2017-09-11T10:02:47Z</time>
      </trkpt>
      <trkpt lat="47.15259" lon="5.54619">
        <ele>234</ele>
        <time>2017-09-11T10:02:55Z</time>
      </trkpt>
      <trkpt lat="47.15254" lon="5.54619">
        <ele>233</ele>
        <time>2017-09-11T10:02:59Z</time>
      </trkpt>
      <trkpt lat="47.15245" lon="5.54624">
        <ele>232</ele>
        <time>2017-09-11T10:03:08Z</time>
      </trkpt>
      <trkpt lat="47.1524" lon="5.54629">
        <ele>232</ele>
        <time>2017-09-11T10:03:14Z</time>
      </trkpt>
      <trkpt lat="47.15236" lon="5.54635">
        <ele>233</ele>
        <time>2017-09-11T10:03:21Z</time>
      </trkpt>
      <trkpt lat="47.15232" lon="5.54638">
        <ele>234</ele>
        <time>2017-09-11T10:03:26Z</time>
      </trkpt>
      <trkpt lat="47.15227" lon="5.54639">
        <ele>233</ele>
        <time>2017-09-11T10:03:29Z</time>
      </trkpt>
      <trkpt lat="47.15218" lon="5.54648">
        <ele>232</ele>
        <time>2017-09-11T10:03:36Z</time>
      </trkpt>
      <trkpt lat="47.15213" lon="5.54649">
        <ele>231</ele>
        <time>2017-09-11T10:03:39Z</time>
      </trkpt>
      <trkpt lat="47.15208" lon="5.54649">
        <ele>231</ele>
        <time>2017-09-11T10:03:42Z</time>
      </trkpt>
      <trkpt lat="47.15199" lon="5.54656">
        <ele>230</ele>
        <time>2017-09-11T10:03:54Z</time>
      </trkpt>
      <trkpt lat="47.15194" lon="5.54657">
        <ele>230</ele>
        <time>2017-09-11T10:03:57Z</time>
      </trkpt>
      <trkpt lat="47.15189" lon="5.54661">
        <ele>229</ele>
        <time>2017-09-11T10:04:01Z</time>
      </trkpt>
      <trkpt lat="47.1518" lon="5.54668">
        <ele>229</ele>
        <time>2017-09-11T10:04:10Z</time>
      </trkpt>
      <trkpt lat="47.15176" lon="5.54674">
        <ele>228</ele>
        <time>2017-09-11T10:04:15Z</time>
      </trkpt>
      <trkpt lat="47.15168" lon="5.54682">
        <ele>227</ele>
        <time>2017-09-11T10:04:24Z</time>
      </trkpt>
      <trkpt lat="47.15158" lon="5.54685">
        <ele>227</ele>
        <time>2017-09-11T10:04:31Z</time>
      </trkpt>
      <trkpt lat="47.15153" lon="5.54687">
        <ele>227</ele>
        <time>2017-09-11T10:04:35Z</time>
      </trkpt>
      <trkpt lat="47.15136" lon="5.54734">
        <ele>229</ele>
        <time>2017-09-11T10:05:02Z</time>
      </trkpt>
      <trkpt lat="47.15137" lon="5.54758">
        <ele>227</ele>
        <time>2017-09-11T10:05:12Z</time>
      </trkpt>
      <trkpt lat="47.15139" lon="5.54765">
        <ele>227</ele>
        <time>2017-09-11T10:05:17Z</time>
      </trkpt>
      <trkpt lat="47.15139" lon="5.54773">
        <ele>227</ele>
        <time>2017-09-11T10:05:21Z</time>
      </trkpt>
      <trkpt lat="47.15144" lon="5.54787">
        <ele>227</ele>
        <time>2017-09-11T10:05:29Z</time>
      </trkpt>
      <trkpt lat="47.15165" lon="5.54839">
        <ele>221</ele>
        <time>2017-09-11T10:06:01Z</time>
      </trkpt>
      <trkpt lat="47.15171" lon="5.54851">
        <ele>220</ele>
        <time>2017-09-11T10:06:12Z</time>
      </trkpt>
      <trkpt lat="47.15171" lon="5.54858">
        <ele>220</ele>
        <time>2017-09-11T10:06:18Z</time>
      </trkpt>
      <trkpt lat="47.15167" lon="5.54862">
        <ele>220</ele>
        <time>2017-09-11T10:06:24Z</time>
      </trkpt>
      <trkpt lat="47.15159" lon="5.54872">
        <ele>219</ele>
        <time>2017-09-11T10:06:34Z</time>
      </trkpt>
      <trkpt lat="47.15149" lon="5.54877">
        <ele>218</ele>
        <time>2017-09-11T10:06:42Z</time>
      </trkpt>
      <trkpt lat="47.15139" lon="5.54879">
        <ele>217</ele>
        <time>2017-09-11T10:06:50Z</time>
      </trkpt>
      <trkpt lat="47.15124" lon="5.54878">
        <ele>217</ele>
        <time>2017-09-11T10:07:03Z</time>
      </trkpt>
      <trkpt lat="47.15106" lon="5.54874">
        <ele>216</ele>
        <time>2017-09-11T10:07:18Z</time>
      </trkpt>
      <trkpt lat="47.15096" lon="5.54868">
        <ele>216</ele>
        <time>2017-09-11T10:07:34Z</time>
      </trkpt>
      <trkpt lat="47.15091" lon="5.54873">
        <ele>217</ele>
        <time>2017-09-11T10:07:50Z</time>
      </trkpt>
      <trkpt lat="47.15087" lon="5.54875">
        <ele>217</ele>
        <time>2017-09-11T10:07:54Z</time>
      </trkpt>
      <trkpt lat="47.15082" lon="5.54876">
        <ele>218</ele>
        <time>2017-09-11T10:07:59Z</time>
      </trkpt>
      <trkpt lat="47.15077" lon="5.54878">
        <ele>218</ele>
        <time>2017-09-11T10:08:05Z</time>
      </trkpt>
      <trkpt lat="47.15066" lon="5.54886">
        <ele>219</ele>
        <time>2017-09-11T10:08:19Z</time>
      </trkpt>
      <trkpt lat="47.15062" lon="5.5489">
        <ele>219</ele>
        <time>2017-09-11T10:08:23Z</time>
      </trkpt>
      <trkpt lat="47.15057" lon="5.54893">
        <ele>220</ele>
        <time>2017-09-11T10:08:29Z</time>
      </trkpt>
      <trkpt lat="47.15052" lon="5.54893">
        <ele>220</ele>
        <time>2017-09-11T10:08:34Z</time>
      </trkpt>
      <trkpt lat="47.15048" lon="5.54893">
        <ele>220</ele>
        <time>2017-09-11T10:08:37Z</time>
      </trkpt>
      <trkpt lat="47.15038" lon="5.54897">
        <ele>219</ele>
        <time>2017-09-11T10:08:45Z</time>
      </trkpt>
      <trkpt lat="47.15034" lon="5.549">
        <ele>219</ele>
        <time>2017-09-11T10:08:49Z</time>
      </trkpt>
      <trkpt lat="47.15026" lon="5.5491">
        <ele>220</ele>
        <time>2017-09-11T10:08:57Z</time>
      </trkpt>
      <trkpt lat="47.15018" lon="5.5492">
        <ele>219</ele>
        <time>2017-09-11T10:09:06Z</time>
      </trkpt>
      <trkpt lat="47.15014" lon="5.54923">
        <ele>219</ele>
        <time>2017-09-11T10:09:10Z</time>
      </trkpt>
      <trkpt lat="47.15" lon="5.54945">
        <ele>218</ele>
        <time>2017-09-11T10:09:26Z</time>
      </trkpt>
      <trkpt lat="47.1499" lon="5.54962">
        <ele>220</ele>
        <time>2017-09-11T10:09:38Z</time>
      </trkpt>
      <trkpt lat="47.14984" lon="5.54974">
        <ele>220</ele>
        <time>2017-09-11T10:09:46Z</time>
      </trkpt>
      <trkpt lat="47.14962" lon="5.55008">
        <ele>222</ele>
        <time>2017-09-11T10:10:10Z</time>
      </trkpt>
      <trkpt lat="47.14958" lon="5.55013">
        <ele>222</ele>
        <time>2017-09-11T10:10:14Z</time>
      </trkpt>
      <trkpt lat="47.14953" lon="5.55017">
        <ele>222</ele>
        <time>2017-09-11T10:10:19Z</time>
      </trkpt>
      <trkpt lat="47.14949" lon="5.55018">
        <ele>222</ele>
        <time>2017-09-11T10:10:22Z</time>
      </trkpt>
      <trkpt lat="47.14945" lon="5.55022">
        <ele>222</ele>
        <time>2017-09-11T10:10:26Z</time>
      </trkpt>
      <trkpt lat="47.14942" lon="5.55029">
        <ele>222</ele>
        <time>2017-09-11T10:10:30Z</time>
      </trkpt>
      <trkpt lat="47.14935" lon="5.55058">
        <ele>220</ele>
        <time>2017-09-11T10:10:44Z</time>
      </trkpt>
      <trkpt lat="47.14923" lon="5.55081">
        <ele>219</ele>
        <time>2017-09-11T10:11:00Z</time>
      </trkpt>
      <trkpt lat="47.14917" lon="5.55101">
        <ele>218</ele>
        <time>2017-09-11T10:11:11Z</time>
      </trkpt>
      <trkpt lat="47.14904" lon="5.55124">
        <ele>217</ele>
        <time>2017-09-11T10:11:27Z</time>
      </trkpt>
      <trkpt lat="47.14899" lon="5.55126">
        <ele>217</ele>
        <time>2017-09-11T10:11:32Z</time>
      </trkpt>
      <trkpt lat="47.14894" lon="5.55124">
        <ele>218</ele>
        <time>2017-09-11T10:11:39Z</time>
      </trkpt>
      <trkpt lat="47.14877" lon="5.55106">
        <ele>214</ele>
        <time>2017-09-11T10:11:59Z</time>
      </trkpt>
      <trkpt lat="47.14861" lon="5.5509">
        <ele>213</ele>
        <time>2017-09-11T10:12:14Z</time>
      </trkpt>
      <trkpt lat="47.14856" lon="5.55088">
        <ele>213</ele>
        <time>2017-09-11T10:12:18Z</time>
      </trkpt>
      <trkpt lat="47.14852" lon="5.55085">
        <ele>213</ele>
        <time>2017-09-11T10:12:21Z</time>
      </trkpt>
      <trkpt lat="47.14848" lon="5.55081">
        <ele>212</ele>
        <time>2017-09-11T10:12:25Z</time>
      </trkpt>
      <trkpt lat="47.14836" lon="5.55065">
        <ele>213</ele>
        <time>2017-09-11T10:12:37Z</time>
      </trkpt>
      <trkpt lat="47.14827" lon="5.55057">
        <ele>213</ele>
        <time>2017-09-11T10:12:46Z</time>
      </trkpt>
      <trkpt lat="47.14823" lon="5.55051">
        <ele>211</ele>
        <time>2017-09-11T10:12:50Z</time>
      </trkpt>
      <trkpt lat="47.14823" lon="5.55043">
        <ele>211</ele>
        <time>2017-09-11T10:12:55Z</time>
      </trkpt>
      <trkpt lat="47.14827" lon="5.55028">
        <ele>211</ele>
        <time>2017-09-11T10:13:05Z</time>
      </trkpt>
      <trkpt lat="47.14829" lon="5.5502">
        <ele>211</ele>
        <time>2017-09-11T10:13:10Z</time>
      </trkpt>
      <trkpt lat="47.14829" lon="5.55013">
        <ele>211</ele>
        <time>2017-09-11T10:13:15Z</time>
      </trkpt>
      <trkpt lat="47.14822" lon="5.54993">
        <ele>212</ele>
        <time>2017-09-11T10:13:29Z</time>
      </trkpt>
      <trkpt lat="47.14792" lon="5.54946">
        <ele>209</ele>
        <time>2017-09-11T10:14:04Z</time>
      </trkpt>
      <trkpt lat="47.14789" lon="5.5494">
        <ele>209</ele>
        <time>2017-09-11T10:14:08Z</time>
      </trkpt>
      <trkpt lat="47.14786" lon="5.54935">
        <ele>208</ele>
        <time>2017-09-11T10:14:11Z</time>
      </trkpt>
      <trkpt lat="47.1478" lon="5.54934">
        <ele>209</ele>
        <time>2017-09-11T10:14:16Z</time>
      </trkpt>
      <trkpt lat="47.14776" lon="5.54935">
        <ele>211</ele>
        <time>2017-09-11T10:14:23Z</time>
      </trkpt>
      <trkpt lat="47.14765" lon="5.54929">
        <ele>213</ele>
        <time>2017-09-11T10:14:32Z</time>
      </trkpt>
      <trkpt lat="47.14761" lon="5.54929">
        <ele>213</ele>
        <time>2017-09-11T10:14:36Z</time>
      </trkpt>
      <trkpt lat="47.14756" lon="5.54929">
        <ele>213</ele>
        <time>2017-09-11T10:14:39Z</time>
      </trkpt>
      <trkpt lat="47.1475" lon="5.54931">
        <ele>212</ele>
        <time>2017-09-11T10:14:43Z</time>
      </trkpt>
      <trkpt lat="47.14734" lon="5.5496">
        <ele>211</ele>
        <time>2017-09-11T10:15:04Z</time>
      </trkpt>
      <trkpt lat="47.14721" lon="5.54999">
        <ele>208</ele>
        <time>2017-09-11T10:15:28Z</time>
      </trkpt>
      <trkpt lat="47.14712" lon="5.55019">
        <ele>207</ele>
        <time>2017-09-11T10:15:40Z</time>
      </trkpt>
      <trkpt lat="47.14699" lon="5.55044">
        <ele>205</ele>
        <time>2017-09-11T10:15:56Z</time>
      </trkpt>
      <trkpt lat="47.14697" lon="5.55051">
        <ele>205</ele>
        <time>2017-09-11T10:16:00Z</time>
      </trkpt>
      <trkpt lat="47.14696" lon="5.55058">
        <ele>205</ele>
        <time>2017-09-11T10:16:04Z</time>
      </trkpt>
      <trkpt lat="47.14693" lon="5.55064">
        <ele>205</ele>
        <time>2017-09-11T10:16:08Z</time>
      </trkpt>
      <trkpt lat="47.14689" lon="5.5507">
        <ele>205</ele>
        <time>2017-09-11T10:16:12Z</time>
      </trkpt>
      <trkpt lat="47.14685" lon="5.55076">
        <ele>205</ele>
        <time>2017-09-11T10:16:16Z</time>
      </trkpt>
      <trkpt lat="47.14678" lon="5.55086">
        <ele>204</ele>
        <time>2017-09-11T10:16:24Z</time>
      </trkpt>
      <trkpt lat="47.14671" lon="5.55096">
        <ele>204</ele>
        <time>2017-09-11T10:16:32Z</time>
      </trkpt>
      <trkpt lat="47.1466" lon="5.5511">
        <ele>204</ele>
        <time>2017-09-11T10:16:44Z</time>
      </trkpt>
      <trkpt lat="47.14657" lon="5.55115">
        <ele>204</ele>
        <time>2017-09-11T10:16:48Z</time>
      </trkpt>
      <trkpt lat="47.14655" lon="5.55129">
        <ele>205</ele>
        <time>2017-09-11T10:16:58Z</time>
      </trkpt>
      <trkpt lat="47.14654" lon="5.55136">
        <ele>205</ele>
        <time>2017-09-11T10:17:03Z</time>
      </trkpt>
      <trkpt lat="47.1465" lon="5.55148">
        <ele>206</ele>
        <time>2017-09-11T10:17:11Z</time>
      </trkpt>
      <trkpt lat="47.14643" lon="5.55158">
        <ele>206</ele>
        <time>2017-09-11T10:17:19Z</time>
      </trkpt>
      <trkpt lat="47.14639" lon="5.55164">
        <ele>207</ele>
        <time>2017-09-11T10:17:24Z</time>
      </trkpt>
      <trkpt lat="47.14638" lon="5.55171">
        <ele>206</ele>
        <time>2017-09-11T10:17:28Z</time>
      </trkpt>
      <trkpt lat="47.14637" lon="5.55192">
        <ele>208</ele>
        <time>2017-09-11T10:17:40Z</time>
      </trkpt>
      <trkpt lat="47.14635" lon="5.55201">
        <ele>209</ele>
        <time>2017-09-11T10:17:59Z</time>
      </trkpt>
      <trkpt lat="47.14636" lon="5.55208">
        <ele>213</ele>
        <time>2017-09-11T10:18:07Z</time>
      </trkpt>
      <trkpt lat="47.14636" lon="5.55215">
        <ele>214</ele>
        <time>2017-09-11T10:18:12Z</time>
      </trkpt>
      <trkpt lat="47.14635" lon="5.55231">
        <ele>214</ele>
        <time>2017-09-11T10:18:22Z</time>
      </trkpt>
      <trkpt lat="47.14635" lon="5.55238">
        <ele>209</ele>
        <time>2017-09-11T10:20:44Z</time>
      </trkpt>
    </trkseg>
  </trk>
</gpx>